<?xml version="1.0" encoding="UTF-8" standalone="no" ?>
<gpx xmlns="http://www.topografix.com/GPX/1/1" xmlns:xsi="http://www.w3.org/2001/XMLSchema-instance" xsi:schemaLocation="http://www.topografix.com/GPX/1/1 http://www.topografix.com/GPX/1/1/gpx.xsd" version="1.1" creator="VisuGPX - https://www.visugpx.com">
  <metadata>
    <name>Montigny, Aiglepierre, Grange Perrey</name>
    <desc><![CDATA[Sortie sympa dans les bois au-dessus de Montigny avec jean-Charles]]></desc>
  </metadata>
  <trk>
    <name><![CDATA[2012-04-08T08:02:23Z]]></name>
    <trkseg>
      <trkpt lat="46.9212" lon="5.78051">
        <ele>333</ele>
        <time>2012-04-08T08:02:24Z</time>
      </trkpt>
      <trkpt lat="46.92119" lon="5.78056">
        <ele>333</ele>
        <time>2012-04-08T08:02:26Z</time>
      </trkpt>
      <trkpt lat="46.92119" lon="5.78071">
        <ele>333</ele>
        <time>2012-04-08T08:02:30Z</time>
      </trkpt>
      <trkpt lat="46.92121" lon="5.78088">
        <ele>336</ele>
        <time>2012-04-08T08:02:35Z</time>
      </trkpt>
      <trkpt lat="46.92123" lon="5.781">
        <ele>337</ele>
        <time>2012-04-08T08:02:38Z</time>
      </trkpt>
      <trkpt lat="46.92127" lon="5.78115">
        <ele>337</ele>
        <time>2012-04-08T08:02:44Z</time>
      </trkpt>
      <trkpt lat="46.92132" lon="5.78139">
        <ele>338</ele>
        <time>2012-04-08T08:02:50Z</time>
      </trkpt>
      <trkpt lat="46.92135" lon="5.78159">
        <ele>339</ele>
        <time>2012-04-08T08:02:55Z</time>
      </trkpt>
      <trkpt lat="46.92141" lon="5.78177">
        <ele>344</ele>
        <time>2012-04-08T08:03:00Z</time>
      </trkpt>
      <trkpt lat="46.92142" lon="5.78205">
        <ele>345</ele>
        <time>2012-04-08T08:03:05Z</time>
      </trkpt>
      <trkpt lat="46.92146" lon="5.78214">
        <ele>345</ele>
        <time>2012-04-08T08:03:09Z</time>
      </trkpt>
      <trkpt lat="46.92152" lon="5.78223">
        <ele>346</ele>
        <time>2012-04-08T08:03:14Z</time>
      </trkpt>
      <trkpt lat="46.92159" lon="5.78229">
        <ele>346</ele>
        <time>2012-04-08T08:03:19Z</time>
      </trkpt>
      <trkpt lat="46.92162" lon="5.7823">
        <ele>346</ele>
        <time>2012-04-08T08:03:20Z</time>
      </trkpt>
      <trkpt lat="46.92168" lon="5.78243">
        <ele>347</ele>
        <time>2012-04-08T08:03:25Z</time>
      </trkpt>
      <trkpt lat="46.92174" lon="5.78244">
        <ele>347</ele>
        <time>2012-04-08T08:03:28Z</time>
      </trkpt>
      <trkpt lat="46.92192" lon="5.78239">
        <ele>347</ele>
        <time>2012-04-08T08:03:35Z</time>
      </trkpt>
      <trkpt lat="46.922" lon="5.78232">
        <ele>347</ele>
        <time>2012-04-08T08:03:39Z</time>
      </trkpt>
      <trkpt lat="46.92214" lon="5.78216">
        <ele>347</ele>
        <time>2012-04-08T08:03:46Z</time>
      </trkpt>
      <trkpt lat="46.92223" lon="5.78217">
        <ele>348</ele>
        <time>2012-04-08T08:03:50Z</time>
      </trkpt>
      <trkpt lat="46.92225" lon="5.78245">
        <ele>348</ele>
        <time>2012-04-08T08:03:54Z</time>
      </trkpt>
      <trkpt lat="46.92231" lon="5.78262">
        <ele>352</ele>
        <time>2012-04-08T08:04:01Z</time>
      </trkpt>
      <trkpt lat="46.92235" lon="5.78277">
        <ele>353</ele>
        <time>2012-04-08T08:04:07Z</time>
      </trkpt>
      <trkpt lat="46.92238" lon="5.78294">
        <ele>354</ele>
        <time>2012-04-08T08:04:13Z</time>
      </trkpt>
      <trkpt lat="46.92241" lon="5.7831">
        <ele>356</ele>
        <time>2012-04-08T08:04:19Z</time>
      </trkpt>
      <trkpt lat="46.92247" lon="5.78323">
        <ele>357</ele>
        <time>2012-04-08T08:04:24Z</time>
      </trkpt>
      <trkpt lat="46.92255" lon="5.78335">
        <ele>360</ele>
        <time>2012-04-08T08:04:30Z</time>
      </trkpt>
      <trkpt lat="46.9226" lon="5.78346">
        <ele>361</ele>
        <time>2012-04-08T08:04:35Z</time>
      </trkpt>
      <trkpt lat="46.92265" lon="5.78354">
        <ele>362</ele>
        <time>2012-04-08T08:04:39Z</time>
      </trkpt>
      <trkpt lat="46.92271" lon="5.78367">
        <ele>363</ele>
        <time>2012-04-08T08:04:45Z</time>
      </trkpt>
      <trkpt lat="46.92274" lon="5.78376">
        <ele>363</ele>
        <time>2012-04-08T08:04:50Z</time>
      </trkpt>
      <trkpt lat="46.92279" lon="5.78389">
        <ele>364</ele>
        <time>2012-04-08T08:04:56Z</time>
      </trkpt>
      <trkpt lat="46.92285" lon="5.78405">
        <ele>365</ele>
        <time>2012-04-08T08:05:02Z</time>
      </trkpt>
      <trkpt lat="46.92288" lon="5.78417">
        <ele>370</ele>
        <time>2012-04-08T08:05:07Z</time>
      </trkpt>
      <trkpt lat="46.9229" lon="5.78431">
        <ele>371</ele>
        <time>2012-04-08T08:05:12Z</time>
      </trkpt>
      <trkpt lat="46.92289" lon="5.78437">
        <ele>371</ele>
        <time>2012-04-08T08:05:15Z</time>
      </trkpt>
      <trkpt lat="46.92288" lon="5.78441">
        <ele>371</ele>
        <time>2012-04-08T08:05:17Z</time>
      </trkpt>
      <trkpt lat="46.92286" lon="5.78457">
        <ele>372</ele>
        <time>2012-04-08T08:05:25Z</time>
      </trkpt>
      <trkpt lat="46.92283" lon="5.78466">
        <ele>372</ele>
        <time>2012-04-08T08:05:30Z</time>
      </trkpt>
      <trkpt lat="46.92285" lon="5.78477">
        <ele>373</ele>
        <time>2012-04-08T08:05:34Z</time>
      </trkpt>
      <trkpt lat="46.92291" lon="5.78494">
        <ele>373</ele>
        <time>2012-04-08T08:05:40Z</time>
      </trkpt>
      <trkpt lat="46.92292" lon="5.78496">
        <ele>373</ele>
        <time>2012-04-08T08:05:41Z</time>
      </trkpt>
      <trkpt lat="46.92296" lon="5.78511">
        <ele>378</ele>
        <time>2012-04-08T08:05:47Z</time>
      </trkpt>
      <trkpt lat="46.92297" lon="5.78527">
        <ele>378</ele>
        <time>2012-04-08T08:05:53Z</time>
      </trkpt>
      <trkpt lat="46.92296" lon="5.7854">
        <ele>379</ele>
        <time>2012-04-08T08:05:58Z</time>
      </trkpt>
      <trkpt lat="46.92295" lon="5.78545">
        <ele>379</ele>
        <time>2012-04-08T08:06:00Z</time>
      </trkpt>
      <trkpt lat="46.92292" lon="5.78562">
        <ele>380</ele>
        <time>2012-04-08T08:06:07Z</time>
      </trkpt>
      <trkpt lat="46.92292" lon="5.78569">
        <ele>380</ele>
        <time>2012-04-08T08:06:10Z</time>
      </trkpt>
      <trkpt lat="46.92301" lon="5.78583">
        <ele>380</ele>
        <time>2012-04-08T08:06:18Z</time>
      </trkpt>
      <trkpt lat="46.92307" lon="5.7859">
        <ele>385</ele>
        <time>2012-04-08T08:06:23Z</time>
      </trkpt>
      <trkpt lat="46.92318" lon="5.786">
        <ele>384</ele>
        <time>2012-04-08T08:06:28Z</time>
      </trkpt>
      <trkpt lat="46.92328" lon="5.78613">
        <ele>385</ele>
        <time>2012-04-08T08:06:34Z</time>
      </trkpt>
      <trkpt lat="46.92338" lon="5.78625">
        <ele>378</ele>
        <time>2012-04-08T08:06:39Z</time>
      </trkpt>
      <trkpt lat="46.92346" lon="5.78639">
        <ele>379</ele>
        <time>2012-04-08T08:06:44Z</time>
      </trkpt>
      <trkpt lat="46.92351" lon="5.78652">
        <ele>379</ele>
        <time>2012-04-08T08:06:49Z</time>
      </trkpt>
      <trkpt lat="46.92357" lon="5.78665">
        <ele>379</ele>
        <time>2012-04-08T08:06:54Z</time>
      </trkpt>
      <trkpt lat="46.92365" lon="5.78677">
        <ele>384</ele>
        <time>2012-04-08T08:06:59Z</time>
      </trkpt>
      <trkpt lat="46.92372" lon="5.78688">
        <ele>383</ele>
        <time>2012-04-08T08:07:04Z</time>
      </trkpt>
      <trkpt lat="46.92378" lon="5.78701">
        <ele>384</ele>
        <time>2012-04-08T08:07:09Z</time>
      </trkpt>
      <trkpt lat="46.92382" lon="5.78719">
        <ele>384</ele>
        <time>2012-04-08T08:07:15Z</time>
      </trkpt>
      <trkpt lat="46.92386" lon="5.78736">
        <ele>385</ele>
        <time>2012-04-08T08:07:21Z</time>
      </trkpt>
      <trkpt lat="46.92392" lon="5.7875">
        <ele>385</ele>
        <time>2012-04-08T08:07:26Z</time>
      </trkpt>
      <trkpt lat="46.92398" lon="5.7876">
        <ele>391</ele>
        <time>2012-04-08T08:07:31Z</time>
      </trkpt>
      <trkpt lat="46.92407" lon="5.78771">
        <ele>391</ele>
        <time>2012-04-08T08:07:37Z</time>
      </trkpt>
      <trkpt lat="46.92416" lon="5.78782">
        <ele>393</ele>
        <time>2012-04-08T08:07:42Z</time>
      </trkpt>
      <trkpt lat="46.92425" lon="5.78793">
        <ele>387</ele>
        <time>2012-04-08T08:07:48Z</time>
      </trkpt>
      <trkpt lat="46.92428" lon="5.78799">
        <ele>387</ele>
        <time>2012-04-08T08:07:53Z</time>
      </trkpt>
      <trkpt lat="46.92439" lon="5.78807">
        <ele>387</ele>
        <time>2012-04-08T08:07:58Z</time>
      </trkpt>
      <trkpt lat="46.92455" lon="5.78817">
        <ele>386</ele>
        <time>2012-04-08T08:08:04Z</time>
      </trkpt>
      <trkpt lat="46.92462" lon="5.78822">
        <ele>385</ele>
        <time>2012-04-08T08:08:08Z</time>
      </trkpt>
      <trkpt lat="46.92471" lon="5.78832">
        <ele>384</ele>
        <time>2012-04-08T08:08:15Z</time>
      </trkpt>
      <trkpt lat="46.92477" lon="5.78841">
        <ele>390</ele>
        <time>2012-04-08T08:08:20Z</time>
      </trkpt>
      <trkpt lat="46.92487" lon="5.78853">
        <ele>389</ele>
        <time>2012-04-08T08:08:26Z</time>
      </trkpt>
      <trkpt lat="46.925" lon="5.78861">
        <ele>389</ele>
        <time>2012-04-08T08:08:32Z</time>
      </trkpt>
      <trkpt lat="46.9251" lon="5.78863">
        <ele>382</ele>
        <time>2012-04-08T08:08:36Z</time>
      </trkpt>
      <trkpt lat="46.92511" lon="5.78874">
        <ele>383</ele>
        <time>2012-04-08T08:08:41Z</time>
      </trkpt>
      <trkpt lat="46.92509" lon="5.78887">
        <ele>384</ele>
        <time>2012-04-08T08:08:47Z</time>
      </trkpt>
      <trkpt lat="46.92509" lon="5.78904">
        <ele>386</ele>
        <time>2012-04-08T08:08:52Z</time>
      </trkpt>
      <trkpt lat="46.92509" lon="5.78906">
        <ele>386</ele>
        <time>2012-04-08T08:08:53Z</time>
      </trkpt>
      <trkpt lat="46.92508" lon="5.78913">
        <ele>387</ele>
        <time>2012-04-08T08:08:57Z</time>
      </trkpt>
      <trkpt lat="46.92507" lon="5.78914">
        <ele>388</ele>
        <time>2012-04-08T08:09:01Z</time>
      </trkpt>
      <trkpt lat="46.92507" lon="5.78924">
        <ele>390</ele>
        <time>2012-04-08T08:09:05Z</time>
      </trkpt>
      <trkpt lat="46.92506" lon="5.78944">
        <ele>391</ele>
        <time>2012-04-08T08:09:12Z</time>
      </trkpt>
      <trkpt lat="46.92503" lon="5.78955">
        <ele>392</ele>
        <time>2012-04-08T08:09:16Z</time>
      </trkpt>
      <trkpt lat="46.92502" lon="5.78965">
        <ele>393</ele>
        <time>2012-04-08T08:09:21Z</time>
      </trkpt>
      <trkpt lat="46.92505" lon="5.78982">
        <ele>395</ele>
        <time>2012-04-08T08:09:27Z</time>
      </trkpt>
      <trkpt lat="46.9251" lon="5.78991">
        <ele>396</ele>
        <time>2012-04-08T08:09:32Z</time>
      </trkpt>
      <trkpt lat="46.92513" lon="5.79">
        <ele>397</ele>
        <time>2012-04-08T08:09:36Z</time>
      </trkpt>
      <trkpt lat="46.92522" lon="5.79012">
        <ele>402</ele>
        <time>2012-04-08T08:09:43Z</time>
      </trkpt>
      <trkpt lat="46.92523" lon="5.79014">
        <ele>402</ele>
        <time>2012-04-08T08:09:44Z</time>
      </trkpt>
      <trkpt lat="46.92532" lon="5.79027">
        <ele>402</ele>
        <time>2012-04-08T08:09:51Z</time>
      </trkpt>
      <trkpt lat="46.92541" lon="5.7904">
        <ele>403</ele>
        <time>2012-04-08T08:09:58Z</time>
      </trkpt>
      <trkpt lat="46.92546" lon="5.79049">
        <ele>403</ele>
        <time>2012-04-08T08:10:03Z</time>
      </trkpt>
      <trkpt lat="46.92553" lon="5.79059">
        <ele>404</ele>
        <time>2012-04-08T08:10:09Z</time>
      </trkpt>
      <trkpt lat="46.92558" lon="5.7907">
        <ele>405</ele>
        <time>2012-04-08T08:10:15Z</time>
      </trkpt>
      <trkpt lat="46.92559" lon="5.79072">
        <ele>405</ele>
        <time>2012-04-08T08:10:16Z</time>
      </trkpt>
      <trkpt lat="46.92566" lon="5.79085">
        <ele>413</ele>
        <time>2012-04-08T08:10:23Z</time>
      </trkpt>
      <trkpt lat="46.92572" lon="5.79096">
        <ele>414</ele>
        <time>2012-04-08T08:10:29Z</time>
      </trkpt>
      <trkpt lat="46.92575" lon="5.79105">
        <ele>415</ele>
        <time>2012-04-08T08:10:34Z</time>
      </trkpt>
      <trkpt lat="46.92582" lon="5.79115">
        <ele>417</ele>
        <time>2012-04-08T08:10:39Z</time>
      </trkpt>
      <trkpt lat="46.92583" lon="5.79116">
        <ele>418</ele>
        <time>2012-04-08T08:10:40Z</time>
      </trkpt>
      <trkpt lat="46.92589" lon="5.79127">
        <ele>417</ele>
        <time>2012-04-08T08:10:46Z</time>
      </trkpt>
      <trkpt lat="46.92591" lon="5.79132">
        <ele>418</ele>
        <time>2012-04-08T08:10:49Z</time>
      </trkpt>
      <trkpt lat="46.92596" lon="5.79141">
        <ele>419</ele>
        <time>2012-04-08T08:10:55Z</time>
      </trkpt>
      <trkpt lat="46.92601" lon="5.79148">
        <ele>420</ele>
        <time>2012-04-08T08:11:00Z</time>
      </trkpt>
      <trkpt lat="46.92608" lon="5.79156">
        <ele>420</ele>
        <time>2012-04-08T08:11:05Z</time>
      </trkpt>
      <trkpt lat="46.92615" lon="5.79162">
        <ele>420</ele>
        <time>2012-04-08T08:11:10Z</time>
      </trkpt>
      <trkpt lat="46.92623" lon="5.79168">
        <ele>433</ele>
        <time>2012-04-08T08:11:14Z</time>
      </trkpt>
      <trkpt lat="46.92626" lon="5.79171">
        <ele>433</ele>
        <time>2012-04-08T08:11:17Z</time>
      </trkpt>
      <trkpt lat="46.92629" lon="5.79175">
        <ele>433</ele>
        <time>2012-04-08T08:11:20Z</time>
      </trkpt>
      <trkpt lat="46.92632" lon="5.7918">
        <ele>433</ele>
        <time>2012-04-08T08:11:25Z</time>
      </trkpt>
      <trkpt lat="46.92633" lon="5.79181">
        <ele>433</ele>
        <time>2012-04-08T08:11:26Z</time>
      </trkpt>
      <trkpt lat="46.92636" lon="5.79186">
        <ele>434</ele>
        <time>2012-04-08T08:11:30Z</time>
      </trkpt>
      <trkpt lat="46.92641" lon="5.79195">
        <ele>435</ele>
        <time>2012-04-08T08:11:36Z</time>
      </trkpt>
      <trkpt lat="46.92649" lon="5.79202">
        <ele>435</ele>
        <time>2012-04-08T08:11:41Z</time>
      </trkpt>
      <trkpt lat="46.92657" lon="5.79209">
        <ele>436</ele>
        <time>2012-04-08T08:11:45Z</time>
      </trkpt>
      <trkpt lat="46.92666" lon="5.79217">
        <ele>438</ele>
        <time>2012-04-08T08:11:51Z</time>
      </trkpt>
      <trkpt lat="46.92673" lon="5.79225">
        <ele>436</ele>
        <time>2012-04-08T08:11:57Z</time>
      </trkpt>
      <trkpt lat="46.9268" lon="5.79231">
        <ele>436</ele>
        <time>2012-04-08T08:12:03Z</time>
      </trkpt>
      <trkpt lat="46.92692" lon="5.79237">
        <ele>436</ele>
        <time>2012-04-08T08:12:10Z</time>
      </trkpt>
      <trkpt lat="46.92703" lon="5.79241">
        <ele>434</ele>
        <time>2012-04-08T08:12:16Z</time>
      </trkpt>
      <trkpt lat="46.92714" lon="5.79246">
        <ele>434</ele>
        <time>2012-04-08T08:12:22Z</time>
      </trkpt>
      <trkpt lat="46.92723" lon="5.79249">
        <ele>434</ele>
        <time>2012-04-08T08:12:27Z</time>
      </trkpt>
      <trkpt lat="46.92726" lon="5.79253">
        <ele>445</ele>
        <time>2012-04-08T08:12:29Z</time>
      </trkpt>
      <trkpt lat="46.92728" lon="5.79265">
        <ele>445</ele>
        <time>2012-04-08T08:12:34Z</time>
      </trkpt>
      <trkpt lat="46.92722" lon="5.79281">
        <ele>448</ele>
        <time>2012-04-08T08:12:40Z</time>
      </trkpt>
      <trkpt lat="46.92715" lon="5.79293">
        <ele>450</ele>
        <time>2012-04-08T08:12:45Z</time>
      </trkpt>
      <trkpt lat="46.92714" lon="5.79304">
        <ele>452</ele>
        <time>2012-04-08T08:12:49Z</time>
      </trkpt>
      <trkpt lat="46.92715" lon="5.79312">
        <ele>452</ele>
        <time>2012-04-08T08:12:54Z</time>
      </trkpt>
      <trkpt lat="46.92714" lon="5.79323">
        <ele>453</ele>
        <time>2012-04-08T08:13:00Z</time>
      </trkpt>
      <trkpt lat="46.92721" lon="5.79336">
        <ele>463</ele>
        <time>2012-04-08T08:13:06Z</time>
      </trkpt>
      <trkpt lat="46.92724" lon="5.79344">
        <ele>463</ele>
        <time>2012-04-08T08:13:11Z</time>
      </trkpt>
      <trkpt lat="46.92733" lon="5.79357">
        <ele>463</ele>
        <time>2012-04-08T08:13:18Z</time>
      </trkpt>
      <trkpt lat="46.92736" lon="5.79364">
        <ele>464</ele>
        <time>2012-04-08T08:13:23Z</time>
      </trkpt>
      <trkpt lat="46.92736" lon="5.79366">
        <ele>464</ele>
        <time>2012-04-08T08:13:25Z</time>
      </trkpt>
      <trkpt lat="46.92738" lon="5.79373">
        <ele>465</ele>
        <time>2012-04-08T08:13:30Z</time>
      </trkpt>
      <trkpt lat="46.92744" lon="5.79388">
        <ele>467</ele>
        <time>2012-04-08T08:13:37Z</time>
      </trkpt>
      <trkpt lat="46.92752" lon="5.79398">
        <ele>460</ele>
        <time>2012-04-08T08:13:43Z</time>
      </trkpt>
      <trkpt lat="46.92753" lon="5.794">
        <ele>461</ele>
        <time>2012-04-08T08:13:44Z</time>
      </trkpt>
      <trkpt lat="46.9276" lon="5.79407">
        <ele>462</ele>
        <time>2012-04-08T08:13:49Z</time>
      </trkpt>
      <trkpt lat="46.92763" lon="5.79412">
        <ele>462</ele>
        <time>2012-04-08T08:13:53Z</time>
      </trkpt>
      <trkpt lat="46.92767" lon="5.79424">
        <ele>467</ele>
        <time>2012-04-08T08:13:58Z</time>
      </trkpt>
      <trkpt lat="46.92769" lon="5.79433">
        <ele>466</ele>
        <time>2012-04-08T08:14:02Z</time>
      </trkpt>
      <trkpt lat="46.92771" lon="5.79443">
        <ele>466</ele>
        <time>2012-04-08T08:14:08Z</time>
      </trkpt>
      <trkpt lat="46.92773" lon="5.79453">
        <ele>466</ele>
        <time>2012-04-08T08:14:12Z</time>
      </trkpt>
      <trkpt lat="46.92774" lon="5.79457">
        <ele>466</ele>
        <time>2012-04-08T08:14:14Z</time>
      </trkpt>
      <trkpt lat="46.92777" lon="5.79475">
        <ele>467</ele>
        <time>2012-04-08T08:14:21Z</time>
      </trkpt>
      <trkpt lat="46.9278" lon="5.7949">
        <ele>468</ele>
        <time>2012-04-08T08:14:27Z</time>
      </trkpt>
      <trkpt lat="46.92781" lon="5.79493">
        <ele>468</ele>
        <time>2012-04-08T08:14:28Z</time>
      </trkpt>
      <trkpt lat="46.92782" lon="5.79508">
        <ele>474</ele>
        <time>2012-04-08T08:14:33Z</time>
      </trkpt>
      <trkpt lat="46.92785" lon="5.79525">
        <ele>474</ele>
        <time>2012-04-08T08:14:38Z</time>
      </trkpt>
      <trkpt lat="46.92791" lon="5.79547">
        <ele>475</ele>
        <time>2012-04-08T08:14:45Z</time>
      </trkpt>
      <trkpt lat="46.92794" lon="5.79566">
        <ele>475</ele>
        <time>2012-04-08T08:14:51Z</time>
      </trkpt>
      <trkpt lat="46.92799" lon="5.79579">
        <ele>475</ele>
        <time>2012-04-08T08:14:56Z</time>
      </trkpt>
      <trkpt lat="46.92806" lon="5.79588">
        <ele>480</ele>
        <time>2012-04-08T08:15:01Z</time>
      </trkpt>
      <trkpt lat="46.92815" lon="5.796">
        <ele>479</ele>
        <time>2012-04-08T08:15:05Z</time>
      </trkpt>
      <trkpt lat="46.92825" lon="5.7962">
        <ele>480</ele>
        <time>2012-04-08T08:15:13Z</time>
      </trkpt>
      <trkpt lat="46.9283" lon="5.79639">
        <ele>481</ele>
        <time>2012-04-08T08:15:18Z</time>
      </trkpt>
      <trkpt lat="46.92835" lon="5.79651">
        <ele>474</ele>
        <time>2012-04-08T08:15:22Z</time>
      </trkpt>
      <trkpt lat="46.92842" lon="5.79663">
        <ele>476</ele>
        <time>2012-04-08T08:15:27Z</time>
      </trkpt>
      <trkpt lat="46.92842" lon="5.79666">
        <ele>476</ele>
        <time>2012-04-08T08:15:28Z</time>
      </trkpt>
      <trkpt lat="46.92849" lon="5.79684">
        <ele>479</ele>
        <time>2012-04-08T08:15:35Z</time>
      </trkpt>
      <trkpt lat="46.92849" lon="5.79687">
        <ele>479</ele>
        <time>2012-04-08T08:15:36Z</time>
      </trkpt>
      <trkpt lat="46.92852" lon="5.79712">
        <ele>480</ele>
        <time>2012-04-08T08:15:42Z</time>
      </trkpt>
      <trkpt lat="46.92856" lon="5.79727">
        <ele>481</ele>
        <time>2012-04-08T08:15:47Z</time>
      </trkpt>
      <trkpt lat="46.92854" lon="5.79741">
        <ele>482</ele>
        <time>2012-04-08T08:15:52Z</time>
      </trkpt>
      <trkpt lat="46.92854" lon="5.79746">
        <ele>482</ele>
        <time>2012-04-08T08:15:54Z</time>
      </trkpt>
      <trkpt lat="46.92855" lon="5.79754">
        <ele>486</ele>
        <time>2012-04-08T08:15:57Z</time>
      </trkpt>
      <trkpt lat="46.92863" lon="5.79772">
        <ele>486</ele>
        <time>2012-04-08T08:16:02Z</time>
      </trkpt>
      <trkpt lat="46.92864" lon="5.79777">
        <ele>486</ele>
        <time>2012-04-08T08:16:04Z</time>
      </trkpt>
      <trkpt lat="46.9287" lon="5.79786">
        <ele>486</ele>
        <time>2012-04-08T08:16:07Z</time>
      </trkpt>
      <trkpt lat="46.92877" lon="5.79807">
        <ele>486</ele>
        <time>2012-04-08T08:16:12Z</time>
      </trkpt>
      <trkpt lat="46.9288" lon="5.79815">
        <ele>486</ele>
        <time>2012-04-08T08:16:14Z</time>
      </trkpt>
      <trkpt lat="46.92874" lon="5.79836">
        <ele>488</ele>
        <time>2012-04-08T08:16:20Z</time>
      </trkpt>
      <trkpt lat="46.92876" lon="5.79858">
        <ele>487</ele>
        <time>2012-04-08T08:16:25Z</time>
      </trkpt>
      <trkpt lat="46.9288" lon="5.79878">
        <ele>487</ele>
        <time>2012-04-08T08:16:30Z</time>
      </trkpt>
      <trkpt lat="46.92881" lon="5.79884">
        <ele>487</ele>
        <time>2012-04-08T08:16:33Z</time>
      </trkpt>
      <trkpt lat="46.92882" lon="5.79894">
        <ele>487</ele>
        <time>2012-04-08T08:16:38Z</time>
      </trkpt>
      <trkpt lat="46.92894" lon="5.79915">
        <ele>485</ele>
        <time>2012-04-08T08:16:44Z</time>
      </trkpt>
      <trkpt lat="46.929" lon="5.79937">
        <ele>485</ele>
        <time>2012-04-08T08:16:50Z</time>
      </trkpt>
      <trkpt lat="46.92904" lon="5.79954">
        <ele>486</ele>
        <time>2012-04-08T08:16:55Z</time>
      </trkpt>
      <trkpt lat="46.92906" lon="5.7997">
        <ele>486</ele>
        <time>2012-04-08T08:17:00Z</time>
      </trkpt>
      <trkpt lat="46.92909" lon="5.79991">
        <ele>485</ele>
        <time>2012-04-08T08:17:05Z</time>
      </trkpt>
      <trkpt lat="46.92913" lon="5.8">
        <ele>485</ele>
        <time>2012-04-08T08:17:08Z</time>
      </trkpt>
      <trkpt lat="46.92912" lon="5.80013">
        <ele>486</ele>
        <time>2012-04-08T08:17:12Z</time>
      </trkpt>
      <trkpt lat="46.92912" lon="5.80032">
        <ele>488</ele>
        <time>2012-04-08T08:17:18Z</time>
      </trkpt>
      <trkpt lat="46.92909" lon="5.80055">
        <ele>489</ele>
        <time>2012-04-08T08:17:24Z</time>
      </trkpt>
      <trkpt lat="46.92909" lon="5.80068">
        <ele>489</ele>
        <time>2012-04-08T08:17:28Z</time>
      </trkpt>
      <trkpt lat="46.92909" lon="5.80072">
        <ele>489</ele>
        <time>2012-04-08T08:17:29Z</time>
      </trkpt>
      <trkpt lat="46.9291" lon="5.80088">
        <ele>490</ele>
        <time>2012-04-08T08:17:35Z</time>
      </trkpt>
      <trkpt lat="46.92912" lon="5.80101">
        <ele>491</ele>
        <time>2012-04-08T08:17:39Z</time>
      </trkpt>
      <trkpt lat="46.92914" lon="5.80117">
        <ele>493</ele>
        <time>2012-04-08T08:17:45Z</time>
      </trkpt>
      <trkpt lat="46.92912" lon="5.80126">
        <ele>493</ele>
        <time>2012-04-08T08:17:49Z</time>
      </trkpt>
      <trkpt lat="46.92912" lon="5.80135">
        <ele>494</ele>
        <time>2012-04-08T08:17:53Z</time>
      </trkpt>
      <trkpt lat="46.92913" lon="5.80145">
        <ele>495</ele>
        <time>2012-04-08T08:17:57Z</time>
      </trkpt>
      <trkpt lat="46.92913" lon="5.80155">
        <ele>495</ele>
        <time>2012-04-08T08:18:01Z</time>
      </trkpt>
      <trkpt lat="46.92914" lon="5.80167">
        <ele>496</ele>
        <time>2012-04-08T08:18:07Z</time>
      </trkpt>
      <trkpt lat="46.92915" lon="5.80178">
        <ele>497</ele>
        <time>2012-04-08T08:18:12Z</time>
      </trkpt>
      <trkpt lat="46.92917" lon="5.80193">
        <ele>502</ele>
        <time>2012-04-08T08:18:18Z</time>
      </trkpt>
      <trkpt lat="46.9292" lon="5.80209">
        <ele>504</ele>
        <time>2012-04-08T08:18:24Z</time>
      </trkpt>
      <trkpt lat="46.92919" lon="5.80219">
        <ele>504</ele>
        <time>2012-04-08T08:18:28Z</time>
      </trkpt>
      <trkpt lat="46.92919" lon="5.80225">
        <ele>505</ele>
        <time>2012-04-08T08:18:31Z</time>
      </trkpt>
      <trkpt lat="46.92919" lon="5.80242">
        <ele>505</ele>
        <time>2012-04-08T08:18:38Z</time>
      </trkpt>
      <trkpt lat="46.92919" lon="5.80253">
        <ele>506</ele>
        <time>2012-04-08T08:18:42Z</time>
      </trkpt>
      <trkpt lat="46.9292" lon="5.80256">
        <ele>507</ele>
        <time>2012-04-08T08:18:43Z</time>
      </trkpt>
      <trkpt lat="46.92921" lon="5.80272">
        <ele>511</ele>
        <time>2012-04-08T08:18:49Z</time>
      </trkpt>
      <trkpt lat="46.9292" lon="5.80281">
        <ele>512</ele>
        <time>2012-04-08T08:18:53Z</time>
      </trkpt>
      <trkpt lat="46.92921" lon="5.80298">
        <ele>513</ele>
        <time>2012-04-08T08:18:59Z</time>
      </trkpt>
      <trkpt lat="46.92924" lon="5.80311">
        <ele>514</ele>
        <time>2012-04-08T08:19:04Z</time>
      </trkpt>
      <trkpt lat="46.92923" lon="5.80319">
        <ele>514</ele>
        <time>2012-04-08T08:19:08Z</time>
      </trkpt>
      <trkpt lat="46.92923" lon="5.80327">
        <ele>514</ele>
        <time>2012-04-08T08:19:11Z</time>
      </trkpt>
      <trkpt lat="46.92923" lon="5.80339">
        <ele>516</ele>
        <time>2012-04-08T08:19:15Z</time>
      </trkpt>
      <trkpt lat="46.92923" lon="5.80355">
        <ele>519</ele>
        <time>2012-04-08T08:19:20Z</time>
      </trkpt>
      <trkpt lat="46.92925" lon="5.80367">
        <ele>520</ele>
        <time>2012-04-08T08:19:25Z</time>
      </trkpt>
      <trkpt lat="46.92927" lon="5.80373">
        <ele>520</ele>
        <time>2012-04-08T08:19:27Z</time>
      </trkpt>
      <trkpt lat="46.92929" lon="5.8039">
        <ele>521</ele>
        <time>2012-04-08T08:19:33Z</time>
      </trkpt>
      <trkpt lat="46.92933" lon="5.80401">
        <ele>522</ele>
        <time>2012-04-08T08:19:38Z</time>
      </trkpt>
      <trkpt lat="46.92932" lon="5.80405">
        <ele>522</ele>
        <time>2012-04-08T08:19:40Z</time>
      </trkpt>
      <trkpt lat="46.92932" lon="5.80407">
        <ele>522</ele>
        <time>2012-04-08T08:19:43Z</time>
      </trkpt>
      <trkpt lat="46.9293" lon="5.80405">
        <ele>522</ele>
        <time>2012-04-08T08:19:49Z</time>
      </trkpt>
      <trkpt lat="46.92931" lon="5.80421">
        <ele>523</ele>
        <time>2012-04-08T08:19:55Z</time>
      </trkpt>
      <trkpt lat="46.92932" lon="5.80433">
        <ele>524</ele>
        <time>2012-04-08T08:19:59Z</time>
      </trkpt>
      <trkpt lat="46.9293" lon="5.80437">
        <ele>524</ele>
        <time>2012-04-08T08:20:04Z</time>
      </trkpt>
      <trkpt lat="46.92929" lon="5.80431">
        <ele>524</ele>
        <time>2012-04-08T08:20:07Z</time>
      </trkpt>
      <trkpt lat="46.92928" lon="5.80419">
        <ele>523</ele>
        <time>2012-04-08T08:20:11Z</time>
      </trkpt>
      <trkpt lat="46.92935" lon="5.80403">
        <ele>522</ele>
        <time>2012-04-08T08:20:18Z</time>
      </trkpt>
      <trkpt lat="46.92931" lon="5.80407">
        <ele>522</ele>
        <time>2012-04-08T08:20:23Z</time>
      </trkpt>
      <trkpt lat="46.92933" lon="5.80406">
        <ele>522</ele>
        <time>2012-04-08T08:20:25Z</time>
      </trkpt>
      <trkpt lat="46.92938" lon="5.80388">
        <ele>521</ele>
        <time>2012-04-08T08:20:31Z</time>
      </trkpt>
      <trkpt lat="46.92941" lon="5.80372">
        <ele>521</ele>
        <time>2012-04-08T08:20:36Z</time>
      </trkpt>
      <trkpt lat="46.92947" lon="5.80369">
        <ele>521</ele>
        <time>2012-04-08T08:20:38Z</time>
      </trkpt>
      <trkpt lat="46.92953" lon="5.80364">
        <ele>521</ele>
        <time>2012-04-08T08:20:41Z</time>
      </trkpt>
      <trkpt lat="46.9296" lon="5.80342">
        <ele>521</ele>
        <time>2012-04-08T08:20:48Z</time>
      </trkpt>
      <trkpt lat="46.92965" lon="5.8033">
        <ele>517</ele>
        <time>2012-04-08T08:20:52Z</time>
      </trkpt>
      <trkpt lat="46.92972" lon="5.80317">
        <ele>517</ele>
        <time>2012-04-08T08:20:57Z</time>
      </trkpt>
      <trkpt lat="46.92978" lon="5.80304">
        <ele>517</ele>
        <time>2012-04-08T08:21:02Z</time>
      </trkpt>
      <trkpt lat="46.92987" lon="5.80285">
        <ele>516</ele>
        <time>2012-04-08T08:21:09Z</time>
      </trkpt>
      <trkpt lat="46.92995" lon="5.80277">
        <ele>516</ele>
        <time>2012-04-08T08:21:13Z</time>
      </trkpt>
      <trkpt lat="46.93007" lon="5.80266">
        <ele>520</ele>
        <time>2012-04-08T08:21:17Z</time>
      </trkpt>
      <trkpt lat="46.93017" lon="5.80258">
        <ele>521</ele>
        <time>2012-04-08T08:21:23Z</time>
      </trkpt>
      <trkpt lat="46.93018" lon="5.80256">
        <ele>521</ele>
        <time>2012-04-08T08:21:24Z</time>
      </trkpt>
      <trkpt lat="46.93023" lon="5.80247">
        <ele>516</ele>
        <time>2012-04-08T08:21:29Z</time>
      </trkpt>
      <trkpt lat="46.93027" lon="5.80242">
        <ele>516</ele>
        <time>2012-04-08T08:21:32Z</time>
      </trkpt>
      <trkpt lat="46.9303" lon="5.80237">
        <ele>516</ele>
        <time>2012-04-08T08:21:34Z</time>
      </trkpt>
      <trkpt lat="46.93039" lon="5.80226">
        <ele>516</ele>
        <time>2012-04-08T08:21:40Z</time>
      </trkpt>
      <trkpt lat="46.93042" lon="5.80222">
        <ele>516</ele>
        <time>2012-04-08T08:21:42Z</time>
      </trkpt>
      <trkpt lat="46.93055" lon="5.80211">
        <ele>516</ele>
        <time>2012-04-08T08:21:48Z</time>
      </trkpt>
      <trkpt lat="46.93062" lon="5.80196">
        <ele>515</ele>
        <time>2012-04-08T08:21:53Z</time>
      </trkpt>
      <trkpt lat="46.93073" lon="5.80186">
        <ele>515</ele>
        <time>2012-04-08T08:21:58Z</time>
      </trkpt>
      <trkpt lat="46.9308" lon="5.80175">
        <ele>514</ele>
        <time>2012-04-08T08:22:03Z</time>
      </trkpt>
      <trkpt lat="46.93084" lon="5.80171">
        <ele>516</ele>
        <time>2012-04-08T08:22:05Z</time>
      </trkpt>
      <trkpt lat="46.93092" lon="5.80168">
        <ele>517</ele>
        <time>2012-04-08T08:22:10Z</time>
      </trkpt>
      <trkpt lat="46.93096" lon="5.80166">
        <ele>514</ele>
        <time>2012-04-08T08:22:15Z</time>
      </trkpt>
      <trkpt lat="46.93099" lon="5.80169">
        <ele>519</ele>
        <time>2012-04-08T08:22:24Z</time>
      </trkpt>
      <trkpt lat="46.93096" lon="5.8017">
        <ele>519</ele>
        <time>2012-04-08T08:22:34Z</time>
      </trkpt>
      <trkpt lat="46.93102" lon="5.80171">
        <ele>520</ele>
        <time>2012-04-08T08:22:52Z</time>
      </trkpt>
      <trkpt lat="46.931" lon="5.8017">
        <ele>520</ele>
        <time>2012-04-08T08:22:58Z</time>
      </trkpt>
      <trkpt lat="46.93098" lon="5.80169">
        <ele>519</ele>
        <time>2012-04-08T08:23:01Z</time>
      </trkpt>
      <trkpt lat="46.93096" lon="5.80174">
        <ele>519</ele>
        <time>2012-04-08T08:23:04Z</time>
      </trkpt>
      <trkpt lat="46.93089" lon="5.80182">
        <ele>520</ele>
        <time>2012-04-08T08:23:09Z</time>
      </trkpt>
      <trkpt lat="46.93086" lon="5.80187">
        <ele>521</ele>
        <time>2012-04-08T08:23:11Z</time>
      </trkpt>
      <trkpt lat="46.93083" lon="5.80201">
        <ele>516</ele>
        <time>2012-04-08T08:23:17Z</time>
      </trkpt>
      <trkpt lat="46.93076" lon="5.80212">
        <ele>517</ele>
        <time>2012-04-08T08:23:22Z</time>
      </trkpt>
      <trkpt lat="46.93064" lon="5.80212">
        <ele>516</ele>
        <time>2012-04-08T08:23:27Z</time>
      </trkpt>
      <trkpt lat="46.9305" lon="5.80224">
        <ele>517</ele>
        <time>2012-04-08T08:23:33Z</time>
      </trkpt>
      <trkpt lat="46.93046" lon="5.8023">
        <ele>517</ele>
        <time>2012-04-08T08:23:35Z</time>
      </trkpt>
      <trkpt lat="46.93044" lon="5.80237">
        <ele>517</ele>
        <time>2012-04-08T08:23:38Z</time>
      </trkpt>
      <trkpt lat="46.93039" lon="5.80242">
        <ele>517</ele>
        <time>2012-04-08T08:23:42Z</time>
      </trkpt>
      <trkpt lat="46.93029" lon="5.80247">
        <ele>516</ele>
        <time>2012-04-08T08:23:46Z</time>
      </trkpt>
      <trkpt lat="46.93013" lon="5.8025">
        <ele>520</ele>
        <time>2012-04-08T08:23:52Z</time>
      </trkpt>
      <trkpt lat="46.93006" lon="5.80261">
        <ele>519</ele>
        <time>2012-04-08T08:23:58Z</time>
      </trkpt>
      <trkpt lat="46.92999" lon="5.80276">
        <ele>516</ele>
        <time>2012-04-08T08:24:05Z</time>
      </trkpt>
      <trkpt lat="46.92986" lon="5.80279">
        <ele>516</ele>
        <time>2012-04-08T08:24:10Z</time>
      </trkpt>
      <trkpt lat="46.92977" lon="5.80282">
        <ele>515</ele>
        <time>2012-04-08T08:24:14Z</time>
      </trkpt>
      <trkpt lat="46.92968" lon="5.80281">
        <ele>515</ele>
        <time>2012-04-08T08:24:18Z</time>
      </trkpt>
      <trkpt lat="46.92957" lon="5.80276">
        <ele>514</ele>
        <time>2012-04-08T08:24:23Z</time>
      </trkpt>
      <trkpt lat="46.92953" lon="5.80266">
        <ele>513</ele>
        <time>2012-04-08T08:24:28Z</time>
      </trkpt>
      <trkpt lat="46.92952" lon="5.80251">
        <ele>513</ele>
        <time>2012-04-08T08:24:33Z</time>
      </trkpt>
      <trkpt lat="46.92954" lon="5.80248">
        <ele>507</ele>
        <time>2012-04-08T08:24:34Z</time>
      </trkpt>
      <trkpt lat="46.92956" lon="5.80235">
        <ele>507</ele>
        <time>2012-04-08T08:24:39Z</time>
      </trkpt>
      <trkpt lat="46.92956" lon="5.80221">
        <ele>506</ele>
        <time>2012-04-08T08:24:45Z</time>
      </trkpt>
      <trkpt lat="46.92954" lon="5.80204">
        <ele>505</ele>
        <time>2012-04-08T08:24:50Z</time>
      </trkpt>
      <trkpt lat="46.92953" lon="5.80185">
        <ele>504</ele>
        <time>2012-04-08T08:24:55Z</time>
      </trkpt>
      <trkpt lat="46.92947" lon="5.80161">
        <ele>497</ele>
        <time>2012-04-08T08:25:00Z</time>
      </trkpt>
      <trkpt lat="46.92947" lon="5.80147">
        <ele>496</ele>
        <time>2012-04-08T08:25:04Z</time>
      </trkpt>
      <trkpt lat="46.92948" lon="5.80139">
        <ele>496</ele>
        <time>2012-04-08T08:25:07Z</time>
      </trkpt>
      <trkpt lat="46.92946" lon="5.80125">
        <ele>495</ele>
        <time>2012-04-08T08:25:12Z</time>
      </trkpt>
      <trkpt lat="46.92946" lon="5.80123">
        <ele>495</ele>
        <time>2012-04-08T08:25:13Z</time>
      </trkpt>
      <trkpt lat="46.92947" lon="5.80117">
        <ele>495</ele>
        <time>2012-04-08T08:25:18Z</time>
      </trkpt>
      <trkpt lat="46.92953" lon="5.80107">
        <ele>495</ele>
        <time>2012-04-08T08:25:23Z</time>
      </trkpt>
      <trkpt lat="46.92957" lon="5.80092">
        <ele>494</ele>
        <time>2012-04-08T08:25:29Z</time>
      </trkpt>
      <trkpt lat="46.92953" lon="5.8008">
        <ele>489</ele>
        <time>2012-04-08T08:25:33Z</time>
      </trkpt>
      <trkpt lat="46.92938" lon="5.80057">
        <ele>489</ele>
        <time>2012-04-08T08:25:39Z</time>
      </trkpt>
      <trkpt lat="46.92937" lon="5.80054">
        <ele>488</ele>
        <time>2012-04-08T08:25:40Z</time>
      </trkpt>
      <trkpt lat="46.92926" lon="5.80041">
        <ele>488</ele>
        <time>2012-04-08T08:25:45Z</time>
      </trkpt>
      <trkpt lat="46.9292" lon="5.80035">
        <ele>487</ele>
        <time>2012-04-08T08:25:49Z</time>
      </trkpt>
      <trkpt lat="46.92922" lon="5.80027">
        <ele>487</ele>
        <time>2012-04-08T08:25:52Z</time>
      </trkpt>
      <trkpt lat="46.92924" lon="5.80022">
        <ele>487</ele>
        <time>2012-04-08T08:25:55Z</time>
      </trkpt>
      <trkpt lat="46.9292" lon="5.8001">
        <ele>486</ele>
        <time>2012-04-08T08:26:00Z</time>
      </trkpt>
      <trkpt lat="46.92914" lon="5.80009">
        <ele>486</ele>
        <time>2012-04-08T08:26:04Z</time>
      </trkpt>
      <trkpt lat="46.92906" lon="5.80011">
        <ele>487</ele>
        <time>2012-04-08T08:26:07Z</time>
      </trkpt>
      <trkpt lat="46.92904" lon="5.79999">
        <ele>485</ele>
        <time>2012-04-08T08:26:13Z</time>
      </trkpt>
      <trkpt lat="46.92902" lon="5.79987">
        <ele>486</ele>
        <time>2012-04-08T08:26:17Z</time>
      </trkpt>
      <trkpt lat="46.92892" lon="5.79964">
        <ele>486</ele>
        <time>2012-04-08T08:26:22Z</time>
      </trkpt>
      <trkpt lat="46.92887" lon="5.79946">
        <ele>486</ele>
        <time>2012-04-08T08:26:26Z</time>
      </trkpt>
      <trkpt lat="46.92882" lon="5.79937">
        <ele>486</ele>
        <time>2012-04-08T08:26:29Z</time>
      </trkpt>
      <trkpt lat="46.92877" lon="5.79915">
        <ele>487</ele>
        <time>2012-04-08T08:26:35Z</time>
      </trkpt>
      <trkpt lat="46.92869" lon="5.79903">
        <ele>487</ele>
        <time>2012-04-08T08:26:39Z</time>
      </trkpt>
      <trkpt lat="46.92867" lon="5.799">
        <ele>487</ele>
        <time>2012-04-08T08:26:40Z</time>
      </trkpt>
      <trkpt lat="46.92861" lon="5.79885">
        <ele>488</ele>
        <time>2012-04-08T08:26:46Z</time>
      </trkpt>
      <trkpt lat="46.9286" lon="5.79875">
        <ele>488</ele>
        <time>2012-04-08T08:26:49Z</time>
      </trkpt>
      <trkpt lat="46.92868" lon="5.79858">
        <ele>488</ele>
        <time>2012-04-08T08:26:55Z</time>
      </trkpt>
      <trkpt lat="46.92867" lon="5.79856">
        <ele>488</ele>
        <time>2012-04-08T08:26:56Z</time>
      </trkpt>
      <trkpt lat="46.92869" lon="5.79846">
        <ele>488</ele>
        <time>2012-04-08T08:26:59Z</time>
      </trkpt>
      <trkpt lat="46.92869" lon="5.79837">
        <ele>488</ele>
        <time>2012-04-08T08:27:02Z</time>
      </trkpt>
      <trkpt lat="46.9287" lon="5.79823">
        <ele>487</ele>
        <time>2012-04-08T08:27:06Z</time>
      </trkpt>
      <trkpt lat="46.9287" lon="5.79805">
        <ele>487</ele>
        <time>2012-04-08T08:27:12Z</time>
      </trkpt>
      <trkpt lat="46.92878" lon="5.798">
        <ele>486</ele>
        <time>2012-04-08T08:27:16Z</time>
      </trkpt>
      <trkpt lat="46.92884" lon="5.79796">
        <ele>486</ele>
        <time>2012-04-08T08:27:18Z</time>
      </trkpt>
      <trkpt lat="46.92899" lon="5.79777">
        <ele>484</ele>
        <time>2012-04-08T08:27:25Z</time>
      </trkpt>
      <trkpt lat="46.9291" lon="5.79766">
        <ele>483</ele>
        <time>2012-04-08T08:27:30Z</time>
      </trkpt>
      <trkpt lat="46.92917" lon="5.79759">
        <ele>481</ele>
        <time>2012-04-08T08:27:35Z</time>
      </trkpt>
      <trkpt lat="46.92929" lon="5.7975">
        <ele>477</ele>
        <time>2012-04-08T08:27:40Z</time>
      </trkpt>
      <trkpt lat="46.92942" lon="5.79747">
        <ele>477</ele>
        <time>2012-04-08T08:27:46Z</time>
      </trkpt>
      <trkpt lat="46.9295" lon="5.79745">
        <ele>477</ele>
        <time>2012-04-08T08:27:50Z</time>
      </trkpt>
      <trkpt lat="46.92958" lon="5.7974">
        <ele>477</ele>
        <time>2012-04-08T08:27:54Z</time>
      </trkpt>
      <trkpt lat="46.92967" lon="5.79736">
        <ele>477</ele>
        <time>2012-04-08T08:27:59Z</time>
      </trkpt>
      <trkpt lat="46.92983" lon="5.79732">
        <ele>478</ele>
        <time>2012-04-08T08:28:05Z</time>
      </trkpt>
      <trkpt lat="46.92994" lon="5.79736">
        <ele>480</ele>
        <time>2012-04-08T08:28:11Z</time>
      </trkpt>
      <trkpt lat="46.93004" lon="5.79734">
        <ele>484</ele>
        <time>2012-04-08T08:28:15Z</time>
      </trkpt>
      <trkpt lat="46.93019" lon="5.7973">
        <ele>483</ele>
        <time>2012-04-08T08:28:21Z</time>
      </trkpt>
      <trkpt lat="46.93034" lon="5.79715">
        <ele>483</ele>
        <time>2012-04-08T08:28:28Z</time>
      </trkpt>
      <trkpt lat="46.93042" lon="5.79707">
        <ele>483</ele>
        <time>2012-04-08T08:28:32Z</time>
      </trkpt>
      <trkpt lat="46.93054" lon="5.79698">
        <ele>483</ele>
        <time>2012-04-08T08:28:37Z</time>
      </trkpt>
      <trkpt lat="46.93061" lon="5.79693">
        <ele>483</ele>
        <time>2012-04-08T08:28:40Z</time>
      </trkpt>
      <trkpt lat="46.93076" lon="5.79689">
        <ele>484</ele>
        <time>2012-04-08T08:28:46Z</time>
      </trkpt>
      <trkpt lat="46.93082" lon="5.7969">
        <ele>484</ele>
        <time>2012-04-08T08:28:49Z</time>
      </trkpt>
      <trkpt lat="46.93098" lon="5.79679">
        <ele>487</ele>
        <time>2012-04-08T08:28:56Z</time>
      </trkpt>
      <trkpt lat="46.93105" lon="5.79665">
        <ele>486</ele>
        <time>2012-04-08T08:29:01Z</time>
      </trkpt>
      <trkpt lat="46.93112" lon="5.79652">
        <ele>486</ele>
        <time>2012-04-08T08:29:06Z</time>
      </trkpt>
      <trkpt lat="46.93117" lon="5.79638">
        <ele>487</ele>
        <time>2012-04-08T08:29:12Z</time>
      </trkpt>
      <trkpt lat="46.93122" lon="5.7963">
        <ele>487</ele>
        <time>2012-04-08T08:29:16Z</time>
      </trkpt>
      <trkpt lat="46.93126" lon="5.79616">
        <ele>487</ele>
        <time>2012-04-08T08:29:21Z</time>
      </trkpt>
      <trkpt lat="46.93128" lon="5.79596">
        <ele>487</ele>
        <time>2012-04-08T08:29:27Z</time>
      </trkpt>
      <trkpt lat="46.93135" lon="5.79581">
        <ele>482</ele>
        <time>2012-04-08T08:29:33Z</time>
      </trkpt>
      <trkpt lat="46.93147" lon="5.7957">
        <ele>483</ele>
        <time>2012-04-08T08:29:38Z</time>
      </trkpt>
      <trkpt lat="46.93161" lon="5.79563">
        <ele>484</ele>
        <time>2012-04-08T08:29:44Z</time>
      </trkpt>
      <trkpt lat="46.93174" lon="5.7956">
        <ele>486</ele>
        <time>2012-04-08T08:29:49Z</time>
      </trkpt>
      <trkpt lat="46.93189" lon="5.79558">
        <ele>486</ele>
        <time>2012-04-08T08:29:54Z</time>
      </trkpt>
      <trkpt lat="46.93202" lon="5.79558">
        <ele>485</ele>
        <time>2012-04-08T08:29:59Z</time>
      </trkpt>
      <trkpt lat="46.93216" lon="5.79557">
        <ele>485</ele>
        <time>2012-04-08T08:30:04Z</time>
      </trkpt>
      <trkpt lat="46.93229" lon="5.79554">
        <ele>484</ele>
        <time>2012-04-08T08:30:09Z</time>
      </trkpt>
      <trkpt lat="46.93244" lon="5.79548">
        <ele>484</ele>
        <time>2012-04-08T08:30:14Z</time>
      </trkpt>
      <trkpt lat="46.93257" lon="5.79544">
        <ele>482</ele>
        <time>2012-04-08T08:30:18Z</time>
      </trkpt>
      <trkpt lat="46.93268" lon="5.79539">
        <ele>482</ele>
        <time>2012-04-08T08:30:22Z</time>
      </trkpt>
      <trkpt lat="46.93282" lon="5.79534">
        <ele>482</ele>
        <time>2012-04-08T08:30:27Z</time>
      </trkpt>
      <trkpt lat="46.93294" lon="5.79529">
        <ele>481</ele>
        <time>2012-04-08T08:30:32Z</time>
      </trkpt>
      <trkpt lat="46.93311" lon="5.79526">
        <ele>481</ele>
        <time>2012-04-08T08:30:38Z</time>
      </trkpt>
      <trkpt lat="46.93322" lon="5.79521">
        <ele>481</ele>
        <time>2012-04-08T08:30:42Z</time>
      </trkpt>
      <trkpt lat="46.93336" lon="5.79518">
        <ele>478</ele>
        <time>2012-04-08T08:30:47Z</time>
      </trkpt>
      <trkpt lat="46.93351" lon="5.79516">
        <ele>478</ele>
        <time>2012-04-08T08:30:52Z</time>
      </trkpt>
      <trkpt lat="46.93368" lon="5.79522">
        <ele>477</ele>
        <time>2012-04-08T08:30:58Z</time>
      </trkpt>
      <trkpt lat="46.93382" lon="5.7953">
        <ele>477</ele>
        <time>2012-04-08T08:31:03Z</time>
      </trkpt>
      <trkpt lat="46.93394" lon="5.7954">
        <ele>477</ele>
        <time>2012-04-08T08:31:08Z</time>
      </trkpt>
      <trkpt lat="46.93396" lon="5.79543">
        <ele>478</ele>
        <time>2012-04-08T08:31:09Z</time>
      </trkpt>
      <trkpt lat="46.93417" lon="5.79555">
        <ele>473</ele>
        <time>2012-04-08T08:31:16Z</time>
      </trkpt>
      <trkpt lat="46.93424" lon="5.79558">
        <ele>474</ele>
        <time>2012-04-08T08:31:19Z</time>
      </trkpt>
      <trkpt lat="46.93444" lon="5.79564">
        <ele>473</ele>
        <time>2012-04-08T08:31:26Z</time>
      </trkpt>
      <trkpt lat="46.93457" lon="5.79574">
        <ele>472</ele>
        <time>2012-04-08T08:31:31Z</time>
      </trkpt>
      <trkpt lat="46.93468" lon="5.79583">
        <ele>472</ele>
        <time>2012-04-08T08:31:36Z</time>
      </trkpt>
      <trkpt lat="46.93482" lon="5.7959">
        <ele>478</ele>
        <time>2012-04-08T08:31:41Z</time>
      </trkpt>
      <trkpt lat="46.93494" lon="5.79597">
        <ele>477</ele>
        <time>2012-04-08T08:31:46Z</time>
      </trkpt>
      <trkpt lat="46.93503" lon="5.79608">
        <ele>473</ele>
        <time>2012-04-08T08:31:51Z</time>
      </trkpt>
      <trkpt lat="46.93515" lon="5.79624">
        <ele>474</ele>
        <time>2012-04-08T08:31:57Z</time>
      </trkpt>
      <trkpt lat="46.9352" lon="5.79629">
        <ele>475</ele>
        <time>2012-04-08T08:31:59Z</time>
      </trkpt>
      <trkpt lat="46.93524" lon="5.79634">
        <ele>475</ele>
        <time>2012-04-08T08:32:01Z</time>
      </trkpt>
      <trkpt lat="46.93538" lon="5.7965">
        <ele>475</ele>
        <time>2012-04-08T08:32:07Z</time>
      </trkpt>
      <trkpt lat="46.9355" lon="5.79664">
        <ele>475</ele>
        <time>2012-04-08T08:32:13Z</time>
      </trkpt>
      <trkpt lat="46.93555" lon="5.79672">
        <ele>481</ele>
        <time>2012-04-08T08:32:16Z</time>
      </trkpt>
      <trkpt lat="46.93561" lon="5.79681">
        <ele>481</ele>
        <time>2012-04-08T08:32:20Z</time>
      </trkpt>
      <trkpt lat="46.93573" lon="5.79696">
        <ele>481</ele>
        <time>2012-04-08T08:32:26Z</time>
      </trkpt>
      <trkpt lat="46.93584" lon="5.79712">
        <ele>474</ele>
        <time>2012-04-08T08:32:32Z</time>
      </trkpt>
      <trkpt lat="46.93597" lon="5.79722">
        <ele>475</ele>
        <time>2012-04-08T08:32:38Z</time>
      </trkpt>
      <trkpt lat="46.93604" lon="5.79724">
        <ele>474</ele>
        <time>2012-04-08T08:32:41Z</time>
      </trkpt>
      <trkpt lat="46.93623" lon="5.79733">
        <ele>472</ele>
        <time>2012-04-08T08:32:48Z</time>
      </trkpt>
      <trkpt lat="46.93637" lon="5.7974">
        <ele>471</ele>
        <time>2012-04-08T08:32:54Z</time>
      </trkpt>
      <trkpt lat="46.9365" lon="5.79745">
        <ele>470</ele>
        <time>2012-04-08T08:32:59Z</time>
      </trkpt>
      <trkpt lat="46.93664" lon="5.79748">
        <ele>468</ele>
        <time>2012-04-08T08:33:04Z</time>
      </trkpt>
      <trkpt lat="46.93681" lon="5.79755">
        <ele>465</ele>
        <time>2012-04-08T08:33:09Z</time>
      </trkpt>
      <trkpt lat="46.93696" lon="5.79773">
        <ele>462</ele>
        <time>2012-04-08T08:33:15Z</time>
      </trkpt>
      <trkpt lat="46.93707" lon="5.79781">
        <ele>461</ele>
        <time>2012-04-08T08:33:19Z</time>
      </trkpt>
      <trkpt lat="46.93716" lon="5.79794">
        <ele>460</ele>
        <time>2012-04-08T08:33:24Z</time>
      </trkpt>
      <trkpt lat="46.93721" lon="5.79803">
        <ele>460</ele>
        <time>2012-04-08T08:33:28Z</time>
      </trkpt>
      <trkpt lat="46.93726" lon="5.79813">
        <ele>460</ele>
        <time>2012-04-08T08:33:32Z</time>
      </trkpt>
      <trkpt lat="46.93732" lon="5.7983">
        <ele>459</ele>
        <time>2012-04-08T08:33:39Z</time>
      </trkpt>
      <trkpt lat="46.93742" lon="5.79843">
        <ele>463</ele>
        <time>2012-04-08T08:33:44Z</time>
      </trkpt>
      <trkpt lat="46.93746" lon="5.79854">
        <ele>466</ele>
        <time>2012-04-08T08:33:48Z</time>
      </trkpt>
      <trkpt lat="46.9375" lon="5.79863">
        <ele>469</ele>
        <time>2012-04-08T08:33:52Z</time>
      </trkpt>
      <trkpt lat="46.93751" lon="5.79868">
        <ele>455</ele>
        <time>2012-04-08T08:33:54Z</time>
      </trkpt>
      <trkpt lat="46.93757" lon="5.79876">
        <ele>456</ele>
        <time>2012-04-08T08:33:57Z</time>
      </trkpt>
      <trkpt lat="46.93764" lon="5.79896">
        <ele>459</ele>
        <time>2012-04-08T08:34:02Z</time>
      </trkpt>
      <trkpt lat="46.93767" lon="5.79903">
        <ele>459</ele>
        <time>2012-04-08T08:34:04Z</time>
      </trkpt>
      <trkpt lat="46.93772" lon="5.79922">
        <ele>466</ele>
        <time>2012-04-08T08:34:10Z</time>
      </trkpt>
      <trkpt lat="46.93775" lon="5.79935">
        <ele>466</ele>
        <time>2012-04-08T08:34:14Z</time>
      </trkpt>
      <trkpt lat="46.93776" lon="5.79944">
        <ele>467</ele>
        <time>2012-04-08T08:34:16Z</time>
      </trkpt>
      <trkpt lat="46.93784" lon="5.79958">
        <ele>467</ele>
        <time>2012-04-08T08:34:21Z</time>
      </trkpt>
      <trkpt lat="46.93785" lon="5.79961">
        <ele>467</ele>
        <time>2012-04-08T08:34:22Z</time>
      </trkpt>
      <trkpt lat="46.93787" lon="5.79973">
        <ele>468</ele>
        <time>2012-04-08T08:34:26Z</time>
      </trkpt>
      <trkpt lat="46.93796" lon="5.79987">
        <ele>467</ele>
        <time>2012-04-08T08:34:32Z</time>
      </trkpt>
      <trkpt lat="46.93798" lon="5.80001">
        <ele>476</ele>
        <time>2012-04-08T08:34:37Z</time>
      </trkpt>
      <trkpt lat="46.93802" lon="5.80017">
        <ele>476</ele>
        <time>2012-04-08T08:34:43Z</time>
      </trkpt>
      <trkpt lat="46.93806" lon="5.80037">
        <ele>477</ele>
        <time>2012-04-08T08:34:49Z</time>
      </trkpt>
      <trkpt lat="46.93808" lon="5.8005">
        <ele>478</ele>
        <time>2012-04-08T08:34:53Z</time>
      </trkpt>
      <trkpt lat="46.93808" lon="5.80064">
        <ele>478</ele>
        <time>2012-04-08T08:34:58Z</time>
      </trkpt>
      <trkpt lat="46.93814" lon="5.80075">
        <ele>477</ele>
        <time>2012-04-08T08:35:03Z</time>
      </trkpt>
      <trkpt lat="46.93812" lon="5.80092">
        <ele>485</ele>
        <time>2012-04-08T08:35:08Z</time>
      </trkpt>
      <trkpt lat="46.93805" lon="5.80104">
        <ele>490</ele>
        <time>2012-04-08T08:35:14Z</time>
      </trkpt>
      <trkpt lat="46.93801" lon="5.80107">
        <ele>491</ele>
        <time>2012-04-08T08:35:16Z</time>
      </trkpt>
      <trkpt lat="46.93806" lon="5.80117">
        <ele>491</ele>
        <time>2012-04-08T08:35:21Z</time>
      </trkpt>
      <trkpt lat="46.93809" lon="5.80133">
        <ele>492</ele>
        <time>2012-04-08T08:35:29Z</time>
      </trkpt>
      <trkpt lat="46.93809" lon="5.80136">
        <ele>492</ele>
        <time>2012-04-08T08:35:31Z</time>
      </trkpt>
      <trkpt lat="46.93811" lon="5.80139">
        <ele>491</ele>
        <time>2012-04-08T08:35:33Z</time>
      </trkpt>
      <trkpt lat="46.93813" lon="5.8016">
        <ele>490</ele>
        <time>2012-04-08T08:35:40Z</time>
      </trkpt>
      <trkpt lat="46.93821" lon="5.80173">
        <ele>493</ele>
        <time>2012-04-08T08:35:45Z</time>
      </trkpt>
      <trkpt lat="46.93828" lon="5.80185">
        <ele>495</ele>
        <time>2012-04-08T08:35:50Z</time>
      </trkpt>
      <trkpt lat="46.9383" lon="5.80188">
        <ele>496</ele>
        <time>2012-04-08T08:35:52Z</time>
      </trkpt>
      <trkpt lat="46.9383" lon="5.80193">
        <ele>498</ele>
        <time>2012-04-08T08:35:54Z</time>
      </trkpt>
      <trkpt lat="46.93837" lon="5.8021">
        <ele>480</ele>
        <time>2012-04-08T08:36:00Z</time>
      </trkpt>
      <trkpt lat="46.93843" lon="5.80221">
        <ele>481</ele>
        <time>2012-04-08T08:36:04Z</time>
      </trkpt>
      <trkpt lat="46.93846" lon="5.80227">
        <ele>482</ele>
        <time>2012-04-08T08:36:07Z</time>
      </trkpt>
      <trkpt lat="46.93846" lon="5.80234">
        <ele>484</ele>
        <time>2012-04-08T08:36:10Z</time>
      </trkpt>
      <trkpt lat="46.93852" lon="5.80257">
        <ele>491</ele>
        <time>2012-04-08T08:36:18Z</time>
      </trkpt>
      <trkpt lat="46.93854" lon="5.80263">
        <ele>490</ele>
        <time>2012-04-08T08:36:21Z</time>
      </trkpt>
      <trkpt lat="46.93856" lon="5.80272">
        <ele>490</ele>
        <time>2012-04-08T08:36:25Z</time>
      </trkpt>
      <trkpt lat="46.93861" lon="5.80286">
        <ele>490</ele>
        <time>2012-04-08T08:36:29Z</time>
      </trkpt>
      <trkpt lat="46.93868" lon="5.80299">
        <ele>490</ele>
        <time>2012-04-08T08:36:34Z</time>
      </trkpt>
      <trkpt lat="46.93876" lon="5.80318">
        <ele>490</ele>
        <time>2012-04-08T08:36:40Z</time>
      </trkpt>
      <trkpt lat="46.9388" lon="5.80333">
        <ele>489</ele>
        <time>2012-04-08T08:36:45Z</time>
      </trkpt>
      <trkpt lat="46.93882" lon="5.80348">
        <ele>497</ele>
        <time>2012-04-08T08:36:50Z</time>
      </trkpt>
      <trkpt lat="46.9388" lon="5.80372">
        <ele>499</ele>
        <time>2012-04-08T08:36:57Z</time>
      </trkpt>
      <trkpt lat="46.9388" lon="5.80375">
        <ele>499</ele>
        <time>2012-04-08T08:36:58Z</time>
      </trkpt>
      <trkpt lat="46.93884" lon="5.80385">
        <ele>499</ele>
        <time>2012-04-08T08:37:02Z</time>
      </trkpt>
      <trkpt lat="46.93885" lon="5.804">
        <ele>499</ele>
        <time>2012-04-08T08:37:08Z</time>
      </trkpt>
      <trkpt lat="46.93886" lon="5.80405">
        <ele>498</ele>
        <time>2012-04-08T08:37:10Z</time>
      </trkpt>
      <trkpt lat="46.93892" lon="5.80425">
        <ele>501</ele>
        <time>2012-04-08T08:37:17Z</time>
      </trkpt>
      <trkpt lat="46.93891" lon="5.80439">
        <ele>503</ele>
        <time>2012-04-08T08:37:23Z</time>
      </trkpt>
      <trkpt lat="46.93893" lon="5.8045">
        <ele>504</ele>
        <time>2012-04-08T08:37:27Z</time>
      </trkpt>
      <trkpt lat="46.93895" lon="5.80461">
        <ele>504</ele>
        <time>2012-04-08T08:37:31Z</time>
      </trkpt>
      <trkpt lat="46.93896" lon="5.80472">
        <ele>504</ele>
        <time>2012-04-08T08:37:35Z</time>
      </trkpt>
      <trkpt lat="46.93899" lon="5.80489">
        <ele>501</ele>
        <time>2012-04-08T08:37:41Z</time>
      </trkpt>
      <trkpt lat="46.939" lon="5.80504">
        <ele>503</ele>
        <time>2012-04-08T08:37:46Z</time>
      </trkpt>
      <trkpt lat="46.93904" lon="5.80517">
        <ele>505</ele>
        <time>2012-04-08T08:37:50Z</time>
      </trkpt>
      <trkpt lat="46.93908" lon="5.80531">
        <ele>507</ele>
        <time>2012-04-08T08:37:54Z</time>
      </trkpt>
      <trkpt lat="46.93912" lon="5.80548">
        <ele>508</ele>
        <time>2012-04-08T08:37:59Z</time>
      </trkpt>
      <trkpt lat="46.9392" lon="5.80568">
        <ele>488</ele>
        <time>2012-04-08T08:38:05Z</time>
      </trkpt>
      <trkpt lat="46.93921" lon="5.80588">
        <ele>493</ele>
        <time>2012-04-08T08:38:10Z</time>
      </trkpt>
      <trkpt lat="46.93921" lon="5.80601">
        <ele>489</ele>
        <time>2012-04-08T08:38:14Z</time>
      </trkpt>
      <trkpt lat="46.93921" lon="5.80604">
        <ele>489</ele>
        <time>2012-04-08T08:38:15Z</time>
      </trkpt>
      <trkpt lat="46.93925" lon="5.80616">
        <ele>487</ele>
        <time>2012-04-08T08:38:19Z</time>
      </trkpt>
      <trkpt lat="46.93931" lon="5.80637">
        <ele>488</ele>
        <time>2012-04-08T08:38:25Z</time>
      </trkpt>
      <trkpt lat="46.93933" lon="5.80644">
        <ele>488</ele>
        <time>2012-04-08T08:38:27Z</time>
      </trkpt>
      <trkpt lat="46.93933" lon="5.80659">
        <ele>490</ele>
        <time>2012-04-08T08:38:31Z</time>
      </trkpt>
      <trkpt lat="46.93938" lon="5.80672">
        <ele>491</ele>
        <time>2012-04-08T08:38:35Z</time>
      </trkpt>
      <trkpt lat="46.93943" lon="5.80682">
        <ele>490</ele>
        <time>2012-04-08T08:38:39Z</time>
      </trkpt>
      <trkpt lat="46.93953" lon="5.80699">
        <ele>487</ele>
        <time>2012-04-08T08:38:45Z</time>
      </trkpt>
      <trkpt lat="46.93962" lon="5.80716">
        <ele>486</ele>
        <time>2012-04-08T08:38:50Z</time>
      </trkpt>
      <trkpt lat="46.93963" lon="5.80724">
        <ele>485</ele>
        <time>2012-04-08T08:38:52Z</time>
      </trkpt>
      <trkpt lat="46.93964" lon="5.80731">
        <ele>485</ele>
        <time>2012-04-08T08:38:54Z</time>
      </trkpt>
      <trkpt lat="46.93969" lon="5.80753">
        <ele>488</ele>
        <time>2012-04-08T08:39:00Z</time>
      </trkpt>
      <trkpt lat="46.93977" lon="5.80769">
        <ele>486</ele>
        <time>2012-04-08T08:39:06Z</time>
      </trkpt>
      <trkpt lat="46.93989" lon="5.80786">
        <ele>486</ele>
        <time>2012-04-08T08:39:12Z</time>
      </trkpt>
      <trkpt lat="46.93996" lon="5.80794">
        <ele>486</ele>
        <time>2012-04-08T08:39:16Z</time>
      </trkpt>
      <trkpt lat="46.94003" lon="5.80801">
        <ele>464</ele>
        <time>2012-04-08T08:39:20Z</time>
      </trkpt>
      <trkpt lat="46.9401" lon="5.80807">
        <ele>464</ele>
        <time>2012-04-08T08:39:24Z</time>
      </trkpt>
      <trkpt lat="46.94019" lon="5.80814">
        <ele>464</ele>
        <time>2012-04-08T08:39:28Z</time>
      </trkpt>
      <trkpt lat="46.94029" lon="5.8082">
        <ele>462</ele>
        <time>2012-04-08T08:39:34Z</time>
      </trkpt>
      <trkpt lat="46.9403" lon="5.80821">
        <ele>462</ele>
        <time>2012-04-08T08:39:35Z</time>
      </trkpt>
      <trkpt lat="46.94032" lon="5.80828">
        <ele>462</ele>
        <time>2012-04-08T08:39:39Z</time>
      </trkpt>
      <trkpt lat="46.94039" lon="5.80842">
        <ele>463</ele>
        <time>2012-04-08T08:39:44Z</time>
      </trkpt>
      <trkpt lat="46.94046" lon="5.80855">
        <ele>462</ele>
        <time>2012-04-08T08:39:48Z</time>
      </trkpt>
      <trkpt lat="46.94049" lon="5.8086">
        <ele>461</ele>
        <time>2012-04-08T08:39:50Z</time>
      </trkpt>
      <trkpt lat="46.94047" lon="5.80888">
        <ele>462</ele>
        <time>2012-04-08T08:39:57Z</time>
      </trkpt>
      <trkpt lat="46.94046" lon="5.80905">
        <ele>462</ele>
        <time>2012-04-08T08:40:02Z</time>
      </trkpt>
      <trkpt lat="46.94045" lon="5.80921">
        <ele>462</ele>
        <time>2012-04-08T08:40:06Z</time>
      </trkpt>
      <trkpt lat="46.94047" lon="5.80942">
        <ele>461</ele>
        <time>2012-04-08T08:40:12Z</time>
      </trkpt>
      <trkpt lat="46.94047" lon="5.80959">
        <ele>461</ele>
        <time>2012-04-08T08:40:17Z</time>
      </trkpt>
      <trkpt lat="46.94047" lon="5.80962">
        <ele>461</ele>
        <time>2012-04-08T08:40:18Z</time>
      </trkpt>
      <trkpt lat="46.94047" lon="5.80985">
        <ele>460</ele>
        <time>2012-04-08T08:40:25Z</time>
      </trkpt>
      <trkpt lat="46.94044" lon="5.81001">
        <ele>458</ele>
        <time>2012-04-08T08:40:30Z</time>
      </trkpt>
      <trkpt lat="46.9404" lon="5.81018">
        <ele>459</ele>
        <time>2012-04-08T08:40:36Z</time>
      </trkpt>
      <trkpt lat="46.94039" lon="5.81032">
        <ele>459</ele>
        <time>2012-04-08T08:40:42Z</time>
      </trkpt>
      <trkpt lat="46.94035" lon="5.81043">
        <ele>459</ele>
        <time>2012-04-08T08:40:47Z</time>
      </trkpt>
      <trkpt lat="46.94034" lon="5.81046">
        <ele>459</ele>
        <time>2012-04-08T08:40:48Z</time>
      </trkpt>
      <trkpt lat="46.94029" lon="5.81064">
        <ele>460</ele>
        <time>2012-04-08T08:40:55Z</time>
      </trkpt>
      <trkpt lat="46.94028" lon="5.8108">
        <ele>461</ele>
        <time>2012-04-08T08:41:00Z</time>
      </trkpt>
      <trkpt lat="46.94028" lon="5.81099">
        <ele>457</ele>
        <time>2012-04-08T08:41:05Z</time>
      </trkpt>
      <trkpt lat="46.94028" lon="5.81113">
        <ele>456</ele>
        <time>2012-04-08T08:41:09Z</time>
      </trkpt>
      <trkpt lat="46.94027" lon="5.81126">
        <ele>455</ele>
        <time>2012-04-08T08:41:13Z</time>
      </trkpt>
      <trkpt lat="46.94026" lon="5.81148">
        <ele>456</ele>
        <time>2012-04-08T08:41:19Z</time>
      </trkpt>
      <trkpt lat="46.94027" lon="5.81162">
        <ele>456</ele>
        <time>2012-04-08T08:41:23Z</time>
      </trkpt>
      <trkpt lat="46.94025" lon="5.81178">
        <ele>453</ele>
        <time>2012-04-08T08:41:28Z</time>
      </trkpt>
      <trkpt lat="46.94023" lon="5.81185">
        <ele>452</ele>
        <time>2012-04-08T08:41:30Z</time>
      </trkpt>
      <trkpt lat="46.94022" lon="5.8121">
        <ele>451</ele>
        <time>2012-04-08T08:41:37Z</time>
      </trkpt>
      <trkpt lat="46.9402" lon="5.81232">
        <ele>452</ele>
        <time>2012-04-08T08:41:43Z</time>
      </trkpt>
      <trkpt lat="46.94021" lon="5.81239">
        <ele>452</ele>
        <time>2012-04-08T08:41:45Z</time>
      </trkpt>
      <trkpt lat="46.94022" lon="5.81253">
        <ele>452</ele>
        <time>2012-04-08T08:41:50Z</time>
      </trkpt>
      <trkpt lat="46.94021" lon="5.81269">
        <ele>451</ele>
        <time>2012-04-08T08:41:55Z</time>
      </trkpt>
      <trkpt lat="46.9402" lon="5.81289">
        <ele>450</ele>
        <time>2012-04-08T08:42:00Z</time>
      </trkpt>
      <trkpt lat="46.94019" lon="5.81302">
        <ele>451</ele>
        <time>2012-04-08T08:42:04Z</time>
      </trkpt>
      <trkpt lat="46.94019" lon="5.81314">
        <ele>452</ele>
        <time>2012-04-08T08:42:07Z</time>
      </trkpt>
      <trkpt lat="46.94022" lon="5.81333">
        <ele>453</ele>
        <time>2012-04-08T08:42:12Z</time>
      </trkpt>
      <trkpt lat="46.94027" lon="5.81352">
        <ele>453</ele>
        <time>2012-04-08T08:42:18Z</time>
      </trkpt>
      <trkpt lat="46.94031" lon="5.81363">
        <ele>452</ele>
        <time>2012-04-08T08:42:22Z</time>
      </trkpt>
      <trkpt lat="46.94035" lon="5.8138">
        <ele>452</ele>
        <time>2012-04-08T08:42:27Z</time>
      </trkpt>
      <trkpt lat="46.94036" lon="5.81395">
        <ele>452</ele>
        <time>2012-04-08T08:42:32Z</time>
      </trkpt>
      <trkpt lat="46.94035" lon="5.81406">
        <ele>453</ele>
        <time>2012-04-08T08:42:36Z</time>
      </trkpt>
      <trkpt lat="46.94036" lon="5.8142">
        <ele>457</ele>
        <time>2012-04-08T08:42:41Z</time>
      </trkpt>
      <trkpt lat="46.94036" lon="5.81429">
        <ele>457</ele>
        <time>2012-04-08T08:42:46Z</time>
      </trkpt>
      <trkpt lat="46.9403" lon="5.81427">
        <ele>459</ele>
        <time>2012-04-08T08:42:50Z</time>
      </trkpt>
      <trkpt lat="46.94025" lon="5.81428">
        <ele>460</ele>
        <time>2012-04-08T08:42:54Z</time>
      </trkpt>
      <trkpt lat="46.94022" lon="5.81444">
        <ele>460</ele>
        <time>2012-04-08T08:43:01Z</time>
      </trkpt>
      <trkpt lat="46.94022" lon="5.81456">
        <ele>460</ele>
        <time>2012-04-08T08:43:06Z</time>
      </trkpt>
      <trkpt lat="46.94023" lon="5.81469">
        <ele>461</ele>
        <time>2012-04-08T08:43:11Z</time>
      </trkpt>
      <trkpt lat="46.94024" lon="5.81477">
        <ele>461</ele>
        <time>2012-04-08T08:43:14Z</time>
      </trkpt>
      <trkpt lat="46.94026" lon="5.81492">
        <ele>462</ele>
        <time>2012-04-08T08:43:20Z</time>
      </trkpt>
      <trkpt lat="46.94028" lon="5.81508">
        <ele>467</ele>
        <time>2012-04-08T08:43:26Z</time>
      </trkpt>
      <trkpt lat="46.9403" lon="5.81519">
        <ele>467</ele>
        <time>2012-04-08T08:43:31Z</time>
      </trkpt>
      <trkpt lat="46.94037" lon="5.81534">
        <ele>467</ele>
        <time>2012-04-08T08:43:36Z</time>
      </trkpt>
      <trkpt lat="46.94041" lon="5.81543">
        <ele>467</ele>
        <time>2012-04-08T08:43:39Z</time>
      </trkpt>
      <trkpt lat="46.94046" lon="5.81559">
        <ele>467</ele>
        <time>2012-04-08T08:43:45Z</time>
      </trkpt>
      <trkpt lat="46.94048" lon="5.81574">
        <ele>468</ele>
        <time>2012-04-08T08:43:51Z</time>
      </trkpt>
      <trkpt lat="46.94052" lon="5.81584">
        <ele>473</ele>
        <time>2012-04-08T08:43:56Z</time>
      </trkpt>
      <trkpt lat="46.94056" lon="5.81594">
        <ele>473</ele>
        <time>2012-04-08T08:44:00Z</time>
      </trkpt>
      <trkpt lat="46.94056" lon="5.81596">
        <ele>473</ele>
        <time>2012-04-08T08:44:01Z</time>
      </trkpt>
      <trkpt lat="46.94058" lon="5.81602">
        <ele>473</ele>
        <time>2012-04-08T08:44:04Z</time>
      </trkpt>
      <trkpt lat="46.94062" lon="5.81612">
        <ele>474</ele>
        <time>2012-04-08T08:44:09Z</time>
      </trkpt>
      <trkpt lat="46.94064" lon="5.81621">
        <ele>475</ele>
        <time>2012-04-08T08:44:13Z</time>
      </trkpt>
      <trkpt lat="46.94072" lon="5.81638">
        <ele>475</ele>
        <time>2012-04-08T08:44:20Z</time>
      </trkpt>
      <trkpt lat="46.94073" lon="5.81648">
        <ele>475</ele>
        <time>2012-04-08T08:44:25Z</time>
      </trkpt>
      <trkpt lat="46.94076" lon="5.81656">
        <ele>475</ele>
        <time>2012-04-08T08:44:28Z</time>
      </trkpt>
      <trkpt lat="46.94078" lon="5.8166">
        <ele>475</ele>
        <time>2012-04-08T08:44:32Z</time>
      </trkpt>
      <trkpt lat="46.94077" lon="5.81662">
        <ele>475</ele>
        <time>2012-04-08T08:44:38Z</time>
      </trkpt>
      <trkpt lat="46.94078" lon="5.81669">
        <ele>477</ele>
        <time>2012-04-08T08:44:42Z</time>
      </trkpt>
      <trkpt lat="46.9408" lon="5.81682">
        <ele>481</ele>
        <time>2012-04-08T08:44:49Z</time>
      </trkpt>
      <trkpt lat="46.9408" lon="5.81684">
        <ele>482</ele>
        <time>2012-04-08T08:44:50Z</time>
      </trkpt>
      <trkpt lat="46.94079" lon="5.8169">
        <ele>483</ele>
        <time>2012-04-08T08:44:53Z</time>
      </trkpt>
      <trkpt lat="46.94077" lon="5.81703">
        <ele>486</ele>
        <time>2012-04-08T08:44:59Z</time>
      </trkpt>
      <trkpt lat="46.94078" lon="5.81714">
        <ele>487</ele>
        <time>2012-04-08T08:45:03Z</time>
      </trkpt>
      <trkpt lat="46.94077" lon="5.81724">
        <ele>488</ele>
        <time>2012-04-08T08:45:08Z</time>
      </trkpt>
      <trkpt lat="46.94077" lon="5.81733">
        <ele>489</ele>
        <time>2012-04-08T08:45:14Z</time>
      </trkpt>
      <trkpt lat="46.94077" lon="5.81737">
        <ele>489</ele>
        <time>2012-04-08T08:45:16Z</time>
      </trkpt>
      <trkpt lat="46.94077" lon="5.81741">
        <ele>489</ele>
        <time>2012-04-08T08:45:18Z</time>
      </trkpt>
      <trkpt lat="46.94076" lon="5.81751">
        <ele>494</ele>
        <time>2012-04-08T08:45:24Z</time>
      </trkpt>
      <trkpt lat="46.94076" lon="5.81756">
        <ele>495</ele>
        <time>2012-04-08T08:45:27Z</time>
      </trkpt>
      <trkpt lat="46.94077" lon="5.81758">
        <ele>496</ele>
        <time>2012-04-08T08:45:29Z</time>
      </trkpt>
      <trkpt lat="46.94077" lon="5.81765">
        <ele>498</ele>
        <time>2012-04-08T08:45:34Z</time>
      </trkpt>
      <trkpt lat="46.94076" lon="5.81775">
        <ele>502</ele>
        <time>2012-04-08T08:45:40Z</time>
      </trkpt>
      <trkpt lat="46.94076" lon="5.81777">
        <ele>502</ele>
        <time>2012-04-08T08:45:41Z</time>
      </trkpt>
      <trkpt lat="46.94076" lon="5.8178">
        <ele>504</ele>
        <time>2012-04-08T08:45:43Z</time>
      </trkpt>
      <trkpt lat="46.94076" lon="5.81795">
        <ele>507</ele>
        <time>2012-04-08T08:45:48Z</time>
      </trkpt>
      <trkpt lat="46.94076" lon="5.81799">
        <ele>507</ele>
        <time>2012-04-08T08:45:50Z</time>
      </trkpt>
      <trkpt lat="46.94076" lon="5.81802">
        <ele>508</ele>
        <time>2012-04-08T08:45:52Z</time>
      </trkpt>
      <trkpt lat="46.94075" lon="5.81809">
        <ele>509</ele>
        <time>2012-04-08T08:45:55Z</time>
      </trkpt>
      <trkpt lat="46.94076" lon="5.81816">
        <ele>510</ele>
        <time>2012-04-08T08:46:01Z</time>
      </trkpt>
      <trkpt lat="46.94076" lon="5.81818">
        <ele>510</ele>
        <time>2012-04-08T08:46:02Z</time>
      </trkpt>
      <trkpt lat="46.94074" lon="5.81821">
        <ele>510</ele>
        <time>2012-04-08T08:46:05Z</time>
      </trkpt>
      <trkpt lat="46.94069" lon="5.81826">
        <ele>511</ele>
        <time>2012-04-08T08:46:09Z</time>
      </trkpt>
      <trkpt lat="46.94063" lon="5.81828">
        <ele>511</ele>
        <time>2012-04-08T08:46:14Z</time>
      </trkpt>
      <trkpt lat="46.94052" lon="5.81833">
        <ele>512</ele>
        <time>2012-04-08T08:46:21Z</time>
      </trkpt>
      <trkpt lat="46.94047" lon="5.81835">
        <ele>531</ele>
        <time>2012-04-08T08:46:25Z</time>
      </trkpt>
      <trkpt lat="46.94041" lon="5.81837">
        <ele>532</ele>
        <time>2012-04-08T08:46:29Z</time>
      </trkpt>
      <trkpt lat="46.94039" lon="5.81837">
        <ele>532</ele>
        <time>2012-04-08T08:46:30Z</time>
      </trkpt>
      <trkpt lat="46.94032" lon="5.81836">
        <ele>533</ele>
        <time>2012-04-08T08:46:34Z</time>
      </trkpt>
      <trkpt lat="46.94026" lon="5.81835">
        <ele>534</ele>
        <time>2012-04-08T08:46:40Z</time>
      </trkpt>
      <trkpt lat="46.94019" lon="5.81835">
        <ele>534</ele>
        <time>2012-04-08T08:46:44Z</time>
      </trkpt>
      <trkpt lat="46.94009" lon="5.81834">
        <ele>534</ele>
        <time>2012-04-08T08:46:50Z</time>
      </trkpt>
      <trkpt lat="46.94005" lon="5.81834">
        <ele>534</ele>
        <time>2012-04-08T08:46:52Z</time>
      </trkpt>
      <trkpt lat="46.93999" lon="5.81834">
        <ele>535</ele>
        <time>2012-04-08T08:46:58Z</time>
      </trkpt>
      <trkpt lat="46.93997" lon="5.81833">
        <ele>534</ele>
        <time>2012-04-08T08:47:00Z</time>
      </trkpt>
      <trkpt lat="46.93988" lon="5.8183">
        <ele>535</ele>
        <time>2012-04-08T08:47:07Z</time>
      </trkpt>
      <trkpt lat="46.93984" lon="5.81826">
        <ele>536</ele>
        <time>2012-04-08T08:47:12Z</time>
      </trkpt>
      <trkpt lat="46.93981" lon="5.81822">
        <ele>536</ele>
        <time>2012-04-08T08:47:16Z</time>
      </trkpt>
      <trkpt lat="46.93975" lon="5.81816">
        <ele>537</ele>
        <time>2012-04-08T08:47:21Z</time>
      </trkpt>
      <trkpt lat="46.93972" lon="5.81813">
        <ele>537</ele>
        <time>2012-04-08T08:47:23Z</time>
      </trkpt>
      <trkpt lat="46.93969" lon="5.81809">
        <ele>538</ele>
        <time>2012-04-08T08:47:26Z</time>
      </trkpt>
      <trkpt lat="46.93966" lon="5.81805">
        <ele>538</ele>
        <time>2012-04-08T08:47:29Z</time>
      </trkpt>
      <trkpt lat="46.93962" lon="5.81805">
        <ele>539</ele>
        <time>2012-04-08T08:47:33Z</time>
      </trkpt>
      <trkpt lat="46.93956" lon="5.81799">
        <ele>539</ele>
        <time>2012-04-08T08:47:38Z</time>
      </trkpt>
      <trkpt lat="46.93956" lon="5.81798">
        <ele>539</ele>
        <time>2012-04-08T08:47:39Z</time>
      </trkpt>
      <trkpt lat="46.93952" lon="5.81795">
        <ele>539</ele>
        <time>2012-04-08T08:47:43Z</time>
      </trkpt>
      <trkpt lat="46.9395" lon="5.81793">
        <ele>540</ele>
        <time>2012-04-08T08:47:45Z</time>
      </trkpt>
      <trkpt lat="46.9395" lon="5.8179">
        <ele>539</ele>
        <time>2012-04-08T08:47:48Z</time>
      </trkpt>
      <trkpt lat="46.93947" lon="5.81785">
        <ele>539</ele>
        <time>2012-04-08T08:47:53Z</time>
      </trkpt>
      <trkpt lat="46.93941" lon="5.81781">
        <ele>540</ele>
        <time>2012-04-08T08:47:58Z</time>
      </trkpt>
      <trkpt lat="46.93933" lon="5.81777">
        <ele>541</ele>
        <time>2012-04-08T08:48:02Z</time>
      </trkpt>
      <trkpt lat="46.9393" lon="5.81773">
        <ele>541</ele>
        <time>2012-04-08T08:48:06Z</time>
      </trkpt>
      <trkpt lat="46.9393" lon="5.81769">
        <ele>541</ele>
        <time>2012-04-08T08:48:11Z</time>
      </trkpt>
      <trkpt lat="46.93923" lon="5.81766">
        <ele>542</ele>
        <time>2012-04-08T08:48:16Z</time>
      </trkpt>
      <trkpt lat="46.9392" lon="5.81762">
        <ele>542</ele>
        <time>2012-04-08T08:48:22Z</time>
      </trkpt>
      <trkpt lat="46.93919" lon="5.81762">
        <ele>543</ele>
        <time>2012-04-08T08:48:23Z</time>
      </trkpt>
      <trkpt lat="46.93912" lon="5.81762">
        <ele>551</ele>
        <time>2012-04-08T08:48:29Z</time>
      </trkpt>
      <trkpt lat="46.93905" lon="5.81762">
        <ele>552</ele>
        <time>2012-04-08T08:48:35Z</time>
      </trkpt>
      <trkpt lat="46.93899" lon="5.81756">
        <ele>552</ele>
        <time>2012-04-08T08:48:42Z</time>
      </trkpt>
      <trkpt lat="46.93897" lon="5.81755">
        <ele>553</ele>
        <time>2012-04-08T08:48:43Z</time>
      </trkpt>
      <trkpt lat="46.93892" lon="5.81752">
        <ele>553</ele>
        <time>2012-04-08T08:48:46Z</time>
      </trkpt>
      <trkpt lat="46.93886" lon="5.81751">
        <ele>554</ele>
        <time>2012-04-08T08:48:52Z</time>
      </trkpt>
      <trkpt lat="46.9388" lon="5.81755">
        <ele>555</ele>
        <time>2012-04-08T08:48:58Z</time>
      </trkpt>
      <trkpt lat="46.9388" lon="5.81754">
        <ele>555</ele>
        <time>2012-04-08T08:49:06Z</time>
      </trkpt>
      <trkpt lat="46.9388" lon="5.81754">
        <ele>555</ele>
        <time>2012-04-08T08:49:07Z</time>
      </trkpt>
      <trkpt lat="46.93882" lon="5.81751">
        <ele>555</ele>
        <time>2012-04-08T08:49:11Z</time>
      </trkpt>
      <trkpt lat="46.93888" lon="5.81749">
        <ele>546</ele>
        <time>2012-04-08T08:49:17Z</time>
      </trkpt>
      <trkpt lat="46.93888" lon="5.81745">
        <ele>545</ele>
        <time>2012-04-08T08:49:22Z</time>
      </trkpt>
      <trkpt lat="46.93889" lon="5.81747">
        <ele>545</ele>
        <time>2012-04-08T08:49:28Z</time>
      </trkpt>
      <trkpt lat="46.9389" lon="5.81747">
        <ele>545</ele>
        <time>2012-04-08T08:49:35Z</time>
      </trkpt>
      <trkpt lat="46.93891" lon="5.81748">
        <ele>545</ele>
        <time>2012-04-08T08:49:38Z</time>
      </trkpt>
      <trkpt lat="46.93884" lon="5.81744">
        <ele>546</ele>
        <time>2012-04-08T08:49:47Z</time>
      </trkpt>
      <trkpt lat="46.93882" lon="5.81736">
        <ele>546</ele>
        <time>2012-04-08T08:50:20Z</time>
      </trkpt>
      <trkpt lat="46.93882" lon="5.81737">
        <ele>546</ele>
        <time>2012-04-08T08:50:30Z</time>
      </trkpt>
      <trkpt lat="46.93885" lon="5.81746">
        <ele>546</ele>
        <time>2012-04-08T08:50:57Z</time>
      </trkpt>
      <trkpt lat="46.93883" lon="5.81746">
        <ele>546</ele>
        <time>2012-04-08T08:50:59Z</time>
      </trkpt>
      <trkpt lat="46.93873" lon="5.81742">
        <ele>546</ele>
        <time>2012-04-08T08:51:06Z</time>
      </trkpt>
      <trkpt lat="46.93866" lon="5.81739">
        <ele>547</ele>
        <time>2012-04-08T08:51:11Z</time>
      </trkpt>
      <trkpt lat="46.93863" lon="5.81739">
        <ele>547</ele>
        <time>2012-04-08T08:51:13Z</time>
      </trkpt>
      <trkpt lat="46.93853" lon="5.81741">
        <ele>549</ele>
        <time>2012-04-08T08:51:19Z</time>
      </trkpt>
      <trkpt lat="46.93844" lon="5.81747">
        <ele>551</ele>
        <time>2012-04-08T08:51:24Z</time>
      </trkpt>
      <trkpt lat="46.9383" lon="5.81752">
        <ele>555</ele>
        <time>2012-04-08T08:51:30Z</time>
      </trkpt>
      <trkpt lat="46.9382" lon="5.81756">
        <ele>556</ele>
        <time>2012-04-08T08:51:35Z</time>
      </trkpt>
      <trkpt lat="46.93811" lon="5.8176">
        <ele>556</ele>
        <time>2012-04-08T08:51:40Z</time>
      </trkpt>
      <trkpt lat="46.93801" lon="5.81764">
        <ele>556</ele>
        <time>2012-04-08T08:51:45Z</time>
      </trkpt>
      <trkpt lat="46.93797" lon="5.81766">
        <ele>556</ele>
        <time>2012-04-08T08:51:47Z</time>
      </trkpt>
      <trkpt lat="46.93782" lon="5.81769">
        <ele>555</ele>
        <time>2012-04-08T08:51:53Z</time>
      </trkpt>
      <trkpt lat="46.93771" lon="5.81774">
        <ele>555</ele>
        <time>2012-04-08T08:51:57Z</time>
      </trkpt>
      <trkpt lat="46.93756" lon="5.81781">
        <ele>555</ele>
        <time>2012-04-08T08:52:03Z</time>
      </trkpt>
      <trkpt lat="46.93751" lon="5.81784">
        <ele>555</ele>
        <time>2012-04-08T08:52:05Z</time>
      </trkpt>
      <trkpt lat="46.93737" lon="5.81786">
        <ele>548</ele>
        <time>2012-04-08T08:52:11Z</time>
      </trkpt>
      <trkpt lat="46.93717" lon="5.81797">
        <ele>547</ele>
        <time>2012-04-08T08:52:17Z</time>
      </trkpt>
      <trkpt lat="46.93696" lon="5.81804">
        <ele>546</ele>
        <time>2012-04-08T08:52:23Z</time>
      </trkpt>
      <trkpt lat="46.93682" lon="5.81807">
        <ele>545</ele>
        <time>2012-04-08T08:52:28Z</time>
      </trkpt>
      <trkpt lat="46.9367" lon="5.81809">
        <ele>545</ele>
        <time>2012-04-08T08:52:34Z</time>
      </trkpt>
      <trkpt lat="46.9366" lon="5.81814">
        <ele>542</ele>
        <time>2012-04-08T08:52:41Z</time>
      </trkpt>
      <trkpt lat="46.93657" lon="5.81827">
        <ele>543</ele>
        <time>2012-04-08T08:52:47Z</time>
      </trkpt>
      <trkpt lat="46.93656" lon="5.81838">
        <ele>545</ele>
        <time>2012-04-08T08:52:51Z</time>
      </trkpt>
      <trkpt lat="46.93644" lon="5.81859">
        <ele>546</ele>
        <time>2012-04-08T08:52:58Z</time>
      </trkpt>
      <trkpt lat="46.93634" lon="5.81876">
        <ele>547</ele>
        <time>2012-04-08T08:53:03Z</time>
      </trkpt>
      <trkpt lat="46.93605" lon="5.81908">
        <ele>547</ele>
        <time>2012-04-08T08:53:09Z</time>
      </trkpt>
      <trkpt lat="46.93605" lon="5.81914">
        <ele>547</ele>
        <time>2012-04-08T08:53:11Z</time>
      </trkpt>
      <trkpt lat="46.93603" lon="5.81929">
        <ele>550</ele>
        <time>2012-04-08T08:53:16Z</time>
      </trkpt>
      <trkpt lat="46.93601" lon="5.81936">
        <ele>550</ele>
        <time>2012-04-08T08:53:19Z</time>
      </trkpt>
      <trkpt lat="46.93595" lon="5.8195">
        <ele>550</ele>
        <time>2012-04-08T08:53:23Z</time>
      </trkpt>
      <trkpt lat="46.93592" lon="5.81965">
        <ele>550</ele>
        <time>2012-04-08T08:53:27Z</time>
      </trkpt>
      <trkpt lat="46.93587" lon="5.81977">
        <ele>550</ele>
        <time>2012-04-08T08:53:32Z</time>
      </trkpt>
      <trkpt lat="46.9358" lon="5.81988">
        <ele>547</ele>
        <time>2012-04-08T08:53:37Z</time>
      </trkpt>
      <trkpt lat="46.93572" lon="5.82002">
        <ele>547</ele>
        <time>2012-04-08T08:53:43Z</time>
      </trkpt>
      <trkpt lat="46.93571" lon="5.82005">
        <ele>547</ele>
        <time>2012-04-08T08:53:44Z</time>
      </trkpt>
      <trkpt lat="46.93565" lon="5.82014">
        <ele>547</ele>
        <time>2012-04-08T08:53:48Z</time>
      </trkpt>
      <trkpt lat="46.93558" lon="5.82031">
        <ele>546</ele>
        <time>2012-04-08T08:53:55Z</time>
      </trkpt>
      <trkpt lat="46.93551" lon="5.82048">
        <ele>546</ele>
        <time>2012-04-08T08:54:01Z</time>
      </trkpt>
      <trkpt lat="46.93544" lon="5.82068">
        <ele>546</ele>
        <time>2012-04-08T08:54:07Z</time>
      </trkpt>
      <trkpt lat="46.93543" lon="5.82071">
        <ele>546</ele>
        <time>2012-04-08T08:54:08Z</time>
      </trkpt>
      <trkpt lat="46.93541" lon="5.82086">
        <ele>547</ele>
        <time>2012-04-08T08:54:14Z</time>
      </trkpt>
      <trkpt lat="46.93538" lon="5.82094">
        <ele>547</ele>
        <time>2012-04-08T08:54:17Z</time>
      </trkpt>
      <trkpt lat="46.93531" lon="5.82111">
        <ele>546</ele>
        <time>2012-04-08T08:54:23Z</time>
      </trkpt>
      <trkpt lat="46.93527" lon="5.82123">
        <ele>546</ele>
        <time>2012-04-08T08:54:28Z</time>
      </trkpt>
      <trkpt lat="46.93525" lon="5.82144">
        <ele>547</ele>
        <time>2012-04-08T08:54:34Z</time>
      </trkpt>
      <trkpt lat="46.93524" lon="5.82161">
        <ele>546</ele>
        <time>2012-04-08T08:54:39Z</time>
      </trkpt>
      <trkpt lat="46.93525" lon="5.82176">
        <ele>547</ele>
        <time>2012-04-08T08:54:44Z</time>
      </trkpt>
      <trkpt lat="46.93524" lon="5.82196">
        <ele>548</ele>
        <time>2012-04-08T08:54:50Z</time>
      </trkpt>
      <trkpt lat="46.93526" lon="5.82214">
        <ele>548</ele>
        <time>2012-04-08T08:54:55Z</time>
      </trkpt>
      <trkpt lat="46.93527" lon="5.82231">
        <ele>548</ele>
        <time>2012-04-08T08:55:00Z</time>
      </trkpt>
      <trkpt lat="46.93528" lon="5.82247">
        <ele>548</ele>
        <time>2012-04-08T08:55:05Z</time>
      </trkpt>
      <trkpt lat="46.93528" lon="5.82265">
        <ele>549</ele>
        <time>2012-04-08T08:55:10Z</time>
      </trkpt>
      <trkpt lat="46.93524" lon="5.82283">
        <ele>549</ele>
        <time>2012-04-08T08:55:15Z</time>
      </trkpt>
      <trkpt lat="46.9351" lon="5.82305">
        <ele>549</ele>
        <time>2012-04-08T08:55:22Z</time>
      </trkpt>
      <trkpt lat="46.93508" lon="5.82307">
        <ele>549</ele>
        <time>2012-04-08T08:55:23Z</time>
      </trkpt>
      <trkpt lat="46.935" lon="5.82326">
        <ele>548</ele>
        <time>2012-04-08T08:55:29Z</time>
      </trkpt>
      <trkpt lat="46.93485" lon="5.82341">
        <ele>549</ele>
        <time>2012-04-08T08:55:35Z</time>
      </trkpt>
      <trkpt lat="46.93467" lon="5.82352">
        <ele>548</ele>
        <time>2012-04-08T08:55:42Z</time>
      </trkpt>
      <trkpt lat="46.93449" lon="5.82362">
        <ele>547</ele>
        <time>2012-04-08T08:55:49Z</time>
      </trkpt>
      <trkpt lat="46.93435" lon="5.82361">
        <ele>546</ele>
        <time>2012-04-08T08:55:54Z</time>
      </trkpt>
      <trkpt lat="46.9343" lon="5.82357">
        <ele>546</ele>
        <time>2012-04-08T08:55:56Z</time>
      </trkpt>
      <trkpt lat="46.93425" lon="5.8234">
        <ele>544</ele>
        <time>2012-04-08T08:56:03Z</time>
      </trkpt>
      <trkpt lat="46.9342" lon="5.82324">
        <ele>543</ele>
        <time>2012-04-08T08:56:08Z</time>
      </trkpt>
      <trkpt lat="46.93414" lon="5.82302">
        <ele>541</ele>
        <time>2012-04-08T08:56:14Z</time>
      </trkpt>
      <trkpt lat="46.93409" lon="5.8228">
        <ele>541</ele>
        <time>2012-04-08T08:56:20Z</time>
      </trkpt>
      <trkpt lat="46.93406" lon="5.82255">
        <ele>540</ele>
        <time>2012-04-08T08:56:26Z</time>
      </trkpt>
      <trkpt lat="46.93405" lon="5.82235">
        <ele>540</ele>
        <time>2012-04-08T08:56:31Z</time>
      </trkpt>
      <trkpt lat="46.93405" lon="5.82209">
        <ele>539</ele>
        <time>2012-04-08T08:56:37Z</time>
      </trkpt>
      <trkpt lat="46.93405" lon="5.82185">
        <ele>539</ele>
        <time>2012-04-08T08:56:43Z</time>
      </trkpt>
      <trkpt lat="46.93405" lon="5.82164">
        <ele>538</ele>
        <time>2012-04-08T08:56:48Z</time>
      </trkpt>
      <trkpt lat="46.93404" lon="5.82144">
        <ele>538</ele>
        <time>2012-04-08T08:56:53Z</time>
      </trkpt>
      <trkpt lat="46.93401" lon="5.82125">
        <ele>537</ele>
        <time>2012-04-08T08:56:58Z</time>
      </trkpt>
      <trkpt lat="46.93394" lon="5.82109">
        <ele>537</ele>
        <time>2012-04-08T08:57:04Z</time>
      </trkpt>
      <trkpt lat="46.93392" lon="5.82101">
        <ele>537</ele>
        <time>2012-04-08T08:57:10Z</time>
      </trkpt>
      <trkpt lat="46.93393" lon="5.82101">
        <ele>537</ele>
        <time>2012-04-08T08:57:18Z</time>
      </trkpt>
      <trkpt lat="46.93393" lon="5.82104">
        <ele>537</ele>
        <time>2012-04-08T08:57:29Z</time>
      </trkpt>
      <trkpt lat="46.93393" lon="5.82104">
        <ele>537</ele>
        <time>2012-04-08T08:57:42Z</time>
      </trkpt>
      <trkpt lat="46.93394" lon="5.82103">
        <ele>537</ele>
        <time>2012-04-08T08:57:51Z</time>
      </trkpt>
      <trkpt lat="46.93394" lon="5.82105">
        <ele>537</ele>
        <time>2012-04-08T08:57:56Z</time>
      </trkpt>
      <trkpt lat="46.93394" lon="5.82105">
        <ele>537</ele>
        <time>2012-04-08T08:57:57Z</time>
      </trkpt>
      <trkpt lat="46.93382" lon="5.82106">
        <ele>537</ele>
        <time>2012-04-08T08:58:03Z</time>
      </trkpt>
      <trkpt lat="46.9337" lon="5.82105">
        <ele>537</ele>
        <time>2012-04-08T08:58:08Z</time>
      </trkpt>
      <trkpt lat="46.93358" lon="5.82106">
        <ele>537</ele>
        <time>2012-04-08T08:58:13Z</time>
      </trkpt>
      <trkpt lat="46.93344" lon="5.82106">
        <ele>537</ele>
        <time>2012-04-08T08:58:18Z</time>
      </trkpt>
      <trkpt lat="46.9333" lon="5.82105">
        <ele>537</ele>
        <time>2012-04-08T08:58:23Z</time>
      </trkpt>
      <trkpt lat="46.93312" lon="5.82103">
        <ele>537</ele>
        <time>2012-04-08T08:58:29Z</time>
      </trkpt>
      <trkpt lat="46.93301" lon="5.821">
        <ele>537</ele>
        <time>2012-04-08T08:58:33Z</time>
      </trkpt>
      <trkpt lat="46.93287" lon="5.82097">
        <ele>537</ele>
        <time>2012-04-08T08:58:38Z</time>
      </trkpt>
      <trkpt lat="46.93272" lon="5.82094">
        <ele>536</ele>
        <time>2012-04-08T08:58:43Z</time>
      </trkpt>
      <trkpt lat="46.93258" lon="5.82092">
        <ele>536</ele>
        <time>2012-04-08T08:58:48Z</time>
      </trkpt>
      <trkpt lat="46.93244" lon="5.82089">
        <ele>535</ele>
        <time>2012-04-08T08:58:53Z</time>
      </trkpt>
      <trkpt lat="46.93231" lon="5.82088">
        <ele>536</ele>
        <time>2012-04-08T08:58:58Z</time>
      </trkpt>
      <trkpt lat="46.93221" lon="5.82088">
        <ele>536</ele>
        <time>2012-04-08T08:59:02Z</time>
      </trkpt>
      <trkpt lat="46.93205" lon="5.82088">
        <ele>536</ele>
        <time>2012-04-08T08:59:08Z</time>
      </trkpt>
      <trkpt lat="46.9319" lon="5.82092">
        <ele>536</ele>
        <time>2012-04-08T08:59:14Z</time>
      </trkpt>
      <trkpt lat="46.93177" lon="5.82101">
        <ele>536</ele>
        <time>2012-04-08T08:59:20Z</time>
      </trkpt>
      <trkpt lat="46.93167" lon="5.82111">
        <ele>536</ele>
        <time>2012-04-08T08:59:25Z</time>
      </trkpt>
      <trkpt lat="46.93157" lon="5.82121">
        <ele>536</ele>
        <time>2012-04-08T08:59:30Z</time>
      </trkpt>
      <trkpt lat="46.93146" lon="5.82135">
        <ele>536</ele>
        <time>2012-04-08T08:59:36Z</time>
      </trkpt>
      <trkpt lat="46.93137" lon="5.82147">
        <ele>536</ele>
        <time>2012-04-08T08:59:41Z</time>
      </trkpt>
      <trkpt lat="46.93126" lon="5.82162">
        <ele>536</ele>
        <time>2012-04-08T08:59:47Z</time>
      </trkpt>
      <trkpt lat="46.93116" lon="5.82176">
        <ele>535</ele>
        <time>2012-04-08T08:59:52Z</time>
      </trkpt>
      <trkpt lat="46.93103" lon="5.82195">
        <ele>535</ele>
        <time>2012-04-08T08:59:59Z</time>
      </trkpt>
      <trkpt lat="46.93094" lon="5.82208">
        <ele>535</ele>
        <time>2012-04-08T09:00:04Z</time>
      </trkpt>
      <trkpt lat="46.93084" lon="5.82222">
        <ele>535</ele>
        <time>2012-04-08T09:00:09Z</time>
      </trkpt>
      <trkpt lat="46.93073" lon="5.82239">
        <ele>536</ele>
        <time>2012-04-08T09:00:15Z</time>
      </trkpt>
      <trkpt lat="46.9306" lon="5.82255">
        <ele>538</ele>
        <time>2012-04-08T09:00:21Z</time>
      </trkpt>
      <trkpt lat="46.93047" lon="5.82273">
        <ele>539</ele>
        <time>2012-04-08T09:00:28Z</time>
      </trkpt>
      <trkpt lat="46.93038" lon="5.82285">
        <ele>539</ele>
        <time>2012-04-08T09:00:33Z</time>
      </trkpt>
      <trkpt lat="46.93028" lon="5.82298">
        <ele>540</ele>
        <time>2012-04-08T09:00:39Z</time>
      </trkpt>
      <trkpt lat="46.93021" lon="5.82309">
        <ele>541</ele>
        <time>2012-04-08T09:00:44Z</time>
      </trkpt>
      <trkpt lat="46.93016" lon="5.82321">
        <ele>542</ele>
        <time>2012-04-08T09:00:49Z</time>
      </trkpt>
      <trkpt lat="46.93014" lon="5.82327">
        <ele>543</ele>
        <time>2012-04-08T09:00:51Z</time>
      </trkpt>
      <trkpt lat="46.93012" lon="5.82335">
        <ele>543</ele>
        <time>2012-04-08T09:00:54Z</time>
      </trkpt>
      <trkpt lat="46.93007" lon="5.82347">
        <ele>543</ele>
        <time>2012-04-08T09:00:58Z</time>
      </trkpt>
      <trkpt lat="46.93002" lon="5.82365">
        <ele>541</ele>
        <time>2012-04-08T09:01:04Z</time>
      </trkpt>
      <trkpt lat="46.92995" lon="5.82384">
        <ele>546</ele>
        <time>2012-04-08T09:01:10Z</time>
      </trkpt>
      <trkpt lat="46.92991" lon="5.824">
        <ele>545</ele>
        <time>2012-04-08T09:01:15Z</time>
      </trkpt>
      <trkpt lat="46.92985" lon="5.82419">
        <ele>543</ele>
        <time>2012-04-08T09:01:21Z</time>
      </trkpt>
      <trkpt lat="46.92981" lon="5.82434">
        <ele>544</ele>
        <time>2012-04-08T09:01:26Z</time>
      </trkpt>
      <trkpt lat="46.92976" lon="5.82457">
        <ele>544</ele>
        <time>2012-04-08T09:01:33Z</time>
      </trkpt>
      <trkpt lat="46.92967" lon="5.82476">
        <ele>544</ele>
        <time>2012-04-08T09:01:40Z</time>
      </trkpt>
      <trkpt lat="46.9296" lon="5.82493">
        <ele>545</ele>
        <time>2012-04-08T09:01:46Z</time>
      </trkpt>
      <trkpt lat="46.9295" lon="5.82511">
        <ele>545</ele>
        <time>2012-04-08T09:01:53Z</time>
      </trkpt>
      <trkpt lat="46.92939" lon="5.82521">
        <ele>545</ele>
        <time>2012-04-08T09:01:59Z</time>
      </trkpt>
      <trkpt lat="46.92926" lon="5.8253">
        <ele>546</ele>
        <time>2012-04-08T09:02:06Z</time>
      </trkpt>
      <trkpt lat="46.92911" lon="5.82536">
        <ele>552</ele>
        <time>2012-04-08T09:02:13Z</time>
      </trkpt>
      <trkpt lat="46.92897" lon="5.8254">
        <ele>553</ele>
        <time>2012-04-08T09:02:20Z</time>
      </trkpt>
      <trkpt lat="46.92885" lon="5.82545">
        <ele>553</ele>
        <time>2012-04-08T09:02:26Z</time>
      </trkpt>
      <trkpt lat="46.92878" lon="5.8255">
        <ele>554</ele>
        <time>2012-04-08T09:02:30Z</time>
      </trkpt>
      <trkpt lat="46.92869" lon="5.82557">
        <ele>554</ele>
        <time>2012-04-08T09:02:35Z</time>
      </trkpt>
      <trkpt lat="46.9286" lon="5.82564">
        <ele>555</ele>
        <time>2012-04-08T09:02:40Z</time>
      </trkpt>
      <trkpt lat="46.92848" lon="5.82572">
        <ele>556</ele>
        <time>2012-04-08T09:02:46Z</time>
      </trkpt>
      <trkpt lat="46.92837" lon="5.82577">
        <ele>556</ele>
        <time>2012-04-08T09:02:52Z</time>
      </trkpt>
      <trkpt lat="46.92826" lon="5.8258">
        <ele>558</ele>
        <time>2012-04-08T09:02:57Z</time>
      </trkpt>
      <trkpt lat="46.92814" lon="5.82581">
        <ele>559</ele>
        <time>2012-04-08T09:03:03Z</time>
      </trkpt>
      <trkpt lat="46.92802" lon="5.82581">
        <ele>560</ele>
        <time>2012-04-08T09:03:09Z</time>
      </trkpt>
      <trkpt lat="46.92787" lon="5.82582">
        <ele>560</ele>
        <time>2012-04-08T09:03:16Z</time>
      </trkpt>
      <trkpt lat="46.92777" lon="5.82588">
        <ele>562</ele>
        <time>2012-04-08T09:03:21Z</time>
      </trkpt>
      <trkpt lat="46.92762" lon="5.82596">
        <ele>562</ele>
        <time>2012-04-08T09:03:28Z</time>
      </trkpt>
      <trkpt lat="46.92748" lon="5.82603">
        <ele>564</ele>
        <time>2012-04-08T09:03:34Z</time>
      </trkpt>
      <trkpt lat="46.92733" lon="5.8261">
        <ele>565</ele>
        <time>2012-04-08T09:03:41Z</time>
      </trkpt>
      <trkpt lat="46.92721" lon="5.82614">
        <ele>566</ele>
        <time>2012-04-08T09:03:47Z</time>
      </trkpt>
      <trkpt lat="46.92713" lon="5.82617">
        <ele>566</ele>
        <time>2012-04-08T09:03:51Z</time>
      </trkpt>
      <trkpt lat="46.927" lon="5.82623">
        <ele>566</ele>
        <time>2012-04-08T09:03:57Z</time>
      </trkpt>
      <trkpt lat="46.92696" lon="5.82624">
        <ele>567</ele>
        <time>2012-04-08T09:03:59Z</time>
      </trkpt>
      <trkpt lat="46.92691" lon="5.82636">
        <ele>567</ele>
        <time>2012-04-08T09:04:04Z</time>
      </trkpt>
      <trkpt lat="46.92686" lon="5.82631">
        <ele>567</ele>
        <time>2012-04-08T09:04:09Z</time>
      </trkpt>
      <trkpt lat="46.92682" lon="5.82616">
        <ele>567</ele>
        <time>2012-04-08T09:04:13Z</time>
      </trkpt>
      <trkpt lat="46.9268" lon="5.82613">
        <ele>567</ele>
        <time>2012-04-08T09:04:14Z</time>
      </trkpt>
      <trkpt lat="46.92671" lon="5.82598">
        <ele>567</ele>
        <time>2012-04-08T09:04:20Z</time>
      </trkpt>
      <trkpt lat="46.92663" lon="5.82585">
        <ele>568</ele>
        <time>2012-04-08T09:04:25Z</time>
      </trkpt>
      <trkpt lat="46.92656" lon="5.82576">
        <ele>569</ele>
        <time>2012-04-08T09:04:30Z</time>
      </trkpt>
      <trkpt lat="46.92645" lon="5.82564">
        <ele>570</ele>
        <time>2012-04-08T09:04:36Z</time>
      </trkpt>
      <trkpt lat="46.92634" lon="5.82552">
        <ele>570</ele>
        <time>2012-04-08T09:04:42Z</time>
      </trkpt>
      <trkpt lat="46.92624" lon="5.82544">
        <ele>570</ele>
        <time>2012-04-08T09:04:47Z</time>
      </trkpt>
      <trkpt lat="46.92613" lon="5.82533">
        <ele>571</ele>
        <time>2012-04-08T09:04:53Z</time>
      </trkpt>
      <trkpt lat="46.92602" lon="5.82522">
        <ele>571</ele>
        <time>2012-04-08T09:04:59Z</time>
      </trkpt>
      <trkpt lat="46.92592" lon="5.82513">
        <ele>571</ele>
        <time>2012-04-08T09:05:04Z</time>
      </trkpt>
      <trkpt lat="46.92583" lon="5.82503">
        <ele>572</ele>
        <time>2012-04-08T09:05:09Z</time>
      </trkpt>
      <trkpt lat="46.9257" lon="5.82492">
        <ele>572</ele>
        <time>2012-04-08T09:05:15Z</time>
      </trkpt>
      <trkpt lat="46.92558" lon="5.8248">
        <ele>572</ele>
        <time>2012-04-08T09:05:21Z</time>
      </trkpt>
      <trkpt lat="46.92545" lon="5.82468">
        <ele>572</ele>
        <time>2012-04-08T09:05:27Z</time>
      </trkpt>
      <trkpt lat="46.92534" lon="5.82458">
        <ele>572</ele>
        <time>2012-04-08T09:05:32Z</time>
      </trkpt>
      <trkpt lat="46.92522" lon="5.82445">
        <ele>572</ele>
        <time>2012-04-08T09:05:38Z</time>
      </trkpt>
      <trkpt lat="46.92512" lon="5.82433">
        <ele>571</ele>
        <time>2012-04-08T09:05:43Z</time>
      </trkpt>
      <trkpt lat="46.92497" lon="5.82418">
        <ele>571</ele>
        <time>2012-04-08T09:05:50Z</time>
      </trkpt>
      <trkpt lat="46.92487" lon="5.82408">
        <ele>570</ele>
        <time>2012-04-08T09:05:55Z</time>
      </trkpt>
      <trkpt lat="46.92475" lon="5.82396">
        <ele>570</ele>
        <time>2012-04-08T09:06:01Z</time>
      </trkpt>
      <trkpt lat="46.92464" lon="5.82385">
        <ele>570</ele>
        <time>2012-04-08T09:06:06Z</time>
      </trkpt>
      <trkpt lat="46.92451" lon="5.82372">
        <ele>569</ele>
        <time>2012-04-08T09:06:12Z</time>
      </trkpt>
      <trkpt lat="46.9244" lon="5.82362">
        <ele>569</ele>
        <time>2012-04-08T09:06:17Z</time>
      </trkpt>
      <trkpt lat="46.92426" lon="5.82348">
        <ele>569</ele>
        <time>2012-04-08T09:06:23Z</time>
      </trkpt>
      <trkpt lat="46.92415" lon="5.82337">
        <ele>569</ele>
        <time>2012-04-08T09:06:28Z</time>
      </trkpt>
      <trkpt lat="46.92402" lon="5.82324">
        <ele>569</ele>
        <time>2012-04-08T09:06:34Z</time>
      </trkpt>
      <trkpt lat="46.92391" lon="5.82314">
        <ele>569</ele>
        <time>2012-04-08T09:06:39Z</time>
      </trkpt>
      <trkpt lat="46.92378" lon="5.82301">
        <ele>569</ele>
        <time>2012-04-08T09:06:45Z</time>
      </trkpt>
      <trkpt lat="46.92365" lon="5.82288">
        <ele>569</ele>
        <time>2012-04-08T09:06:51Z</time>
      </trkpt>
      <trkpt lat="46.92354" lon="5.82278">
        <ele>569</ele>
        <time>2012-04-08T09:06:56Z</time>
      </trkpt>
      <trkpt lat="46.92344" lon="5.82269">
        <ele>569</ele>
        <time>2012-04-08T09:07:01Z</time>
      </trkpt>
      <trkpt lat="46.92334" lon="5.8226">
        <ele>569</ele>
        <time>2012-04-08T09:07:06Z</time>
      </trkpt>
      <trkpt lat="46.92323" lon="5.82252">
        <ele>569</ele>
        <time>2012-04-08T09:07:11Z</time>
      </trkpt>
      <trkpt lat="46.92309" lon="5.82237">
        <ele>570</ele>
        <time>2012-04-08T09:07:18Z</time>
      </trkpt>
      <trkpt lat="46.92298" lon="5.82223">
        <ele>570</ele>
        <time>2012-04-08T09:07:24Z</time>
      </trkpt>
      <trkpt lat="46.92289" lon="5.82213">
        <ele>570</ele>
        <time>2012-04-08T09:07:28Z</time>
      </trkpt>
      <trkpt lat="46.9228" lon="5.82201">
        <ele>570</ele>
        <time>2012-04-08T09:07:33Z</time>
      </trkpt>
      <trkpt lat="46.92271" lon="5.8219">
        <ele>570</ele>
        <time>2012-04-08T09:07:38Z</time>
      </trkpt>
      <trkpt lat="46.92257" lon="5.82181">
        <ele>570</ele>
        <time>2012-04-08T09:07:44Z</time>
      </trkpt>
      <trkpt lat="46.92245" lon="5.82176">
        <ele>570</ele>
        <time>2012-04-08T09:07:49Z</time>
      </trkpt>
      <trkpt lat="46.92229" lon="5.82173">
        <ele>570</ele>
        <time>2012-04-08T09:07:55Z</time>
      </trkpt>
      <trkpt lat="46.92214" lon="5.82173">
        <ele>570</ele>
        <time>2012-04-08T09:08:00Z</time>
      </trkpt>
      <trkpt lat="46.92195" lon="5.82174">
        <ele>570</ele>
        <time>2012-04-08T09:08:06Z</time>
      </trkpt>
      <trkpt lat="46.92183" lon="5.82174">
        <ele>570</ele>
        <time>2012-04-08T09:08:10Z</time>
      </trkpt>
      <trkpt lat="46.92168" lon="5.82172">
        <ele>571</ele>
        <time>2012-04-08T09:08:16Z</time>
      </trkpt>
      <trkpt lat="46.92158" lon="5.82169">
        <ele>572</ele>
        <time>2012-04-08T09:08:21Z</time>
      </trkpt>
      <trkpt lat="46.92145" lon="5.8217">
        <ele>572</ele>
        <time>2012-04-08T09:08:25Z</time>
      </trkpt>
      <trkpt lat="46.92134" lon="5.82173">
        <ele>573</ele>
        <time>2012-04-08T09:08:29Z</time>
      </trkpt>
      <trkpt lat="46.92118" lon="5.82177">
        <ele>574</ele>
        <time>2012-04-08T09:08:36Z</time>
      </trkpt>
      <trkpt lat="46.92105" lon="5.82179">
        <ele>574</ele>
        <time>2012-04-08T09:08:42Z</time>
      </trkpt>
      <trkpt lat="46.92092" lon="5.82173">
        <ele>576</ele>
        <time>2012-04-08T09:08:47Z</time>
      </trkpt>
      <trkpt lat="46.92075" lon="5.82164">
        <ele>576</ele>
        <time>2012-04-08T09:08:53Z</time>
      </trkpt>
      <trkpt lat="46.92065" lon="5.82158">
        <ele>575</ele>
        <time>2012-04-08T09:08:57Z</time>
      </trkpt>
      <trkpt lat="46.92054" lon="5.82151">
        <ele>575</ele>
        <time>2012-04-08T09:09:01Z</time>
      </trkpt>
      <trkpt lat="46.92038" lon="5.82143">
        <ele>574</ele>
        <time>2012-04-08T09:09:07Z</time>
      </trkpt>
      <trkpt lat="46.92026" lon="5.82135">
        <ele>574</ele>
        <time>2012-04-08T09:09:12Z</time>
      </trkpt>
      <trkpt lat="46.92015" lon="5.8213">
        <ele>574</ele>
        <time>2012-04-08T09:09:16Z</time>
      </trkpt>
      <trkpt lat="46.92001" lon="5.82121">
        <ele>574</ele>
        <time>2012-04-08T09:09:21Z</time>
      </trkpt>
      <trkpt lat="46.91986" lon="5.82108">
        <ele>574</ele>
        <time>2012-04-08T09:09:27Z</time>
      </trkpt>
      <trkpt lat="46.91974" lon="5.82092">
        <ele>574</ele>
        <time>2012-04-08T09:09:33Z</time>
      </trkpt>
      <trkpt lat="46.91962" lon="5.8208">
        <ele>573</ele>
        <time>2012-04-08T09:09:38Z</time>
      </trkpt>
      <trkpt lat="46.91947" lon="5.82065">
        <ele>573</ele>
        <time>2012-04-08T09:09:44Z</time>
      </trkpt>
      <trkpt lat="46.91933" lon="5.82054">
        <ele>573</ele>
        <time>2012-04-08T09:09:50Z</time>
      </trkpt>
      <trkpt lat="46.91922" lon="5.82049">
        <ele>573</ele>
        <time>2012-04-08T09:09:54Z</time>
      </trkpt>
      <trkpt lat="46.91911" lon="5.82045">
        <ele>572</ele>
        <time>2012-04-08T09:09:59Z</time>
      </trkpt>
      <trkpt lat="46.91899" lon="5.82041">
        <ele>572</ele>
        <time>2012-04-08T09:10:05Z</time>
      </trkpt>
      <trkpt lat="46.91891" lon="5.82041">
        <ele>572</ele>
        <time>2012-04-08T09:10:11Z</time>
      </trkpt>
      <trkpt lat="46.9189" lon="5.82041">
        <ele>572</ele>
        <time>2012-04-08T09:10:12Z</time>
      </trkpt>
      <trkpt lat="46.91882" lon="5.82038">
        <ele>572</ele>
        <time>2012-04-08T09:10:20Z</time>
      </trkpt>
      <trkpt lat="46.91881" lon="5.82036">
        <ele>572</ele>
        <time>2012-04-08T09:10:22Z</time>
      </trkpt>
      <trkpt lat="46.91878" lon="5.82034">
        <ele>572</ele>
        <time>2012-04-08T09:10:31Z</time>
      </trkpt>
      <trkpt lat="46.91877" lon="5.82031">
        <ele>572</ele>
        <time>2012-04-08T09:10:37Z</time>
      </trkpt>
      <trkpt lat="46.91878" lon="5.82024">
        <ele>571</ele>
        <time>2012-04-08T09:10:42Z</time>
      </trkpt>
      <trkpt lat="46.91881" lon="5.82011">
        <ele>571</ele>
        <time>2012-04-08T09:11:06Z</time>
      </trkpt>
      <trkpt lat="46.91892" lon="5.81994">
        <ele>569</ele>
        <time>2012-04-08T09:11:13Z</time>
      </trkpt>
      <trkpt lat="46.91893" lon="5.81984">
        <ele>569</ele>
        <time>2012-04-08T09:11:18Z</time>
      </trkpt>
      <trkpt lat="46.91894" lon="5.81981">
        <ele>569</ele>
        <time>2012-04-08T09:11:23Z</time>
      </trkpt>
      <trkpt lat="46.91893" lon="5.8198">
        <ele>569</ele>
        <time>2012-04-08T09:11:24Z</time>
      </trkpt>
      <trkpt lat="46.91906" lon="5.81967">
        <ele>568</ele>
        <time>2012-04-08T09:11:31Z</time>
      </trkpt>
      <trkpt lat="46.91924" lon="5.81957">
        <ele>567</ele>
        <time>2012-04-08T09:11:38Z</time>
      </trkpt>
      <trkpt lat="46.91941" lon="5.81949">
        <ele>567</ele>
        <time>2012-04-08T09:11:45Z</time>
      </trkpt>
      <trkpt lat="46.91949" lon="5.81944">
        <ele>567</ele>
        <time>2012-04-08T09:11:48Z</time>
      </trkpt>
      <trkpt lat="46.9196" lon="5.8193">
        <ele>566</ele>
        <time>2012-04-08T09:11:53Z</time>
      </trkpt>
      <trkpt lat="46.91973" lon="5.81921">
        <ele>565</ele>
        <time>2012-04-08T09:11:58Z</time>
      </trkpt>
      <trkpt lat="46.91985" lon="5.81908">
        <ele>562</ele>
        <time>2012-04-08T09:12:04Z</time>
      </trkpt>
      <trkpt lat="46.91997" lon="5.81897">
        <ele>562</ele>
        <time>2012-04-08T09:12:09Z</time>
      </trkpt>
      <trkpt lat="46.92009" lon="5.81881">
        <ele>559</ele>
        <time>2012-04-08T09:12:15Z</time>
      </trkpt>
      <trkpt lat="46.92015" lon="5.81873">
        <ele>559</ele>
        <time>2012-04-08T09:12:18Z</time>
      </trkpt>
      <trkpt lat="46.92014" lon="5.81877">
        <ele>559</ele>
        <time>2012-04-08T09:12:23Z</time>
      </trkpt>
      <trkpt lat="46.92011" lon="5.8188">
        <ele>559</ele>
        <time>2012-04-08T09:12:24Z</time>
      </trkpt>
      <trkpt lat="46.91995" lon="5.81893">
        <ele>562</ele>
        <time>2012-04-08T09:12:30Z</time>
      </trkpt>
      <trkpt lat="46.91987" lon="5.81902">
        <ele>562</ele>
        <time>2012-04-08T09:12:35Z</time>
      </trkpt>
      <trkpt lat="46.9198" lon="5.81909">
        <ele>562</ele>
        <time>2012-04-08T09:12:39Z</time>
      </trkpt>
      <trkpt lat="46.91972" lon="5.81918">
        <ele>565</ele>
        <time>2012-04-08T09:12:44Z</time>
      </trkpt>
      <trkpt lat="46.91962" lon="5.81927">
        <ele>566</ele>
        <time>2012-04-08T09:12:49Z</time>
      </trkpt>
      <trkpt lat="46.91951" lon="5.81938">
        <ele>566</ele>
        <time>2012-04-08T09:12:55Z</time>
      </trkpt>
      <trkpt lat="46.91945" lon="5.81942">
        <ele>567</ele>
        <time>2012-04-08T09:12:58Z</time>
      </trkpt>
      <trkpt lat="46.91933" lon="5.81951">
        <ele>567</ele>
        <time>2012-04-08T09:13:05Z</time>
      </trkpt>
      <trkpt lat="46.91921" lon="5.81963">
        <ele>568</ele>
        <time>2012-04-08T09:13:11Z</time>
      </trkpt>
      <trkpt lat="46.91913" lon="5.81971">
        <ele>569</ele>
        <time>2012-04-08T09:13:15Z</time>
      </trkpt>
      <trkpt lat="46.91906" lon="5.81979">
        <ele>569</ele>
        <time>2012-04-08T09:13:19Z</time>
      </trkpt>
      <trkpt lat="46.919" lon="5.81979">
        <ele>569</ele>
        <time>2012-04-08T09:13:23Z</time>
      </trkpt>
      <trkpt lat="46.91892" lon="5.81974">
        <ele>568</ele>
        <time>2012-04-08T09:13:29Z</time>
      </trkpt>
      <trkpt lat="46.91885" lon="5.81964">
        <ele>568</ele>
        <time>2012-04-08T09:13:34Z</time>
      </trkpt>
      <trkpt lat="46.91881" lon="5.81952">
        <ele>567</ele>
        <time>2012-04-08T09:13:37Z</time>
      </trkpt>
      <trkpt lat="46.91875" lon="5.81937">
        <ele>567</ele>
        <time>2012-04-08T09:13:41Z</time>
      </trkpt>
      <trkpt lat="46.91867" lon="5.8191">
        <ele>565</ele>
        <time>2012-04-08T09:13:48Z</time>
      </trkpt>
      <trkpt lat="46.91863" lon="5.81889">
        <ele>565</ele>
        <time>2012-04-08T09:13:53Z</time>
      </trkpt>
      <trkpt lat="46.9186" lon="5.8187">
        <ele>565</ele>
        <time>2012-04-08T09:13:58Z</time>
      </trkpt>
      <trkpt lat="46.91857" lon="5.81852">
        <ele>565</ele>
        <time>2012-04-08T09:14:03Z</time>
      </trkpt>
      <trkpt lat="46.91851" lon="5.81827">
        <ele>565</ele>
        <time>2012-04-08T09:14:09Z</time>
      </trkpt>
      <trkpt lat="46.91846" lon="5.81809">
        <ele>565</ele>
        <time>2012-04-08T09:14:14Z</time>
      </trkpt>
      <trkpt lat="46.91842" lon="5.81791">
        <ele>566</ele>
        <time>2012-04-08T09:14:19Z</time>
      </trkpt>
      <trkpt lat="46.91839" lon="5.81772">
        <ele>566</ele>
        <time>2012-04-08T09:14:24Z</time>
      </trkpt>
      <trkpt lat="46.91838" lon="5.81752">
        <ele>567</ele>
        <time>2012-04-08T09:14:29Z</time>
      </trkpt>
      <trkpt lat="46.9184" lon="5.81729">
        <ele>567</ele>
        <time>2012-04-08T09:14:35Z</time>
      </trkpt>
      <trkpt lat="46.91844" lon="5.81713">
        <ele>567</ele>
        <time>2012-04-08T09:14:40Z</time>
      </trkpt>
      <trkpt lat="46.91847" lon="5.817">
        <ele>567</ele>
        <time>2012-04-08T09:14:44Z</time>
      </trkpt>
      <trkpt lat="46.91849" lon="5.81675">
        <ele>568</ele>
        <time>2012-04-08T09:14:50Z</time>
      </trkpt>
      <trkpt lat="46.91857" lon="5.81648">
        <ele>568</ele>
        <time>2012-04-08T09:14:57Z</time>
      </trkpt>
      <trkpt lat="46.91866" lon="5.81627">
        <ele>568</ele>
        <time>2012-04-08T09:15:03Z</time>
      </trkpt>
      <trkpt lat="46.91876" lon="5.8161">
        <ele>568</ele>
        <time>2012-04-08T09:15:09Z</time>
      </trkpt>
      <trkpt lat="46.91885" lon="5.81599">
        <ele>568</ele>
        <time>2012-04-08T09:15:14Z</time>
      </trkpt>
      <trkpt lat="46.91888" lon="5.81592">
        <ele>569</ele>
        <time>2012-04-08T09:15:17Z</time>
      </trkpt>
      <trkpt lat="46.91892" lon="5.81581">
        <ele>570</ele>
        <time>2012-04-08T09:15:21Z</time>
      </trkpt>
      <trkpt lat="46.91901" lon="5.81564">
        <ele>570</ele>
        <time>2012-04-08T09:15:27Z</time>
      </trkpt>
      <trkpt lat="46.9191" lon="5.81547">
        <ele>571</ele>
        <time>2012-04-08T09:15:32Z</time>
      </trkpt>
      <trkpt lat="46.91915" lon="5.8153">
        <ele>571</ele>
        <time>2012-04-08T09:15:37Z</time>
      </trkpt>
      <trkpt lat="46.91916" lon="5.81505">
        <ele>573</ele>
        <time>2012-04-08T09:15:42Z</time>
      </trkpt>
      <trkpt lat="46.91913" lon="5.81486">
        <ele>573</ele>
        <time>2012-04-08T09:15:47Z</time>
      </trkpt>
      <trkpt lat="46.91911" lon="5.81464">
        <ele>572</ele>
        <time>2012-04-08T09:15:52Z</time>
      </trkpt>
      <trkpt lat="46.91907" lon="5.81452">
        <ele>572</ele>
        <time>2012-04-08T09:15:55Z</time>
      </trkpt>
      <trkpt lat="46.91899" lon="5.81425">
        <ele>572</ele>
        <time>2012-04-08T09:16:02Z</time>
      </trkpt>
      <trkpt lat="46.91891" lon="5.81402">
        <ele>572</ele>
        <time>2012-04-08T09:16:08Z</time>
      </trkpt>
      <trkpt lat="46.91885" lon="5.81382">
        <ele>571</ele>
        <time>2012-04-08T09:16:13Z</time>
      </trkpt>
      <trkpt lat="46.91879" lon="5.81365">
        <ele>571</ele>
        <time>2012-04-08T09:16:18Z</time>
      </trkpt>
      <trkpt lat="46.91871" lon="5.81347">
        <ele>571</ele>
        <time>2012-04-08T09:16:23Z</time>
      </trkpt>
      <trkpt lat="46.9187" lon="5.81343">
        <ele>571</ele>
        <time>2012-04-08T09:16:24Z</time>
      </trkpt>
      <trkpt lat="46.91866" lon="5.81317">
        <ele>571</ele>
        <time>2012-04-08T09:16:30Z</time>
      </trkpt>
      <trkpt lat="46.91861" lon="5.81306">
        <ele>571</ele>
        <time>2012-04-08T09:16:34Z</time>
      </trkpt>
      <trkpt lat="46.91853" lon="5.81287">
        <ele>571</ele>
        <time>2012-04-08T09:16:40Z</time>
      </trkpt>
      <trkpt lat="46.9185" lon="5.81264">
        <ele>571</ele>
        <time>2012-04-08T09:16:46Z</time>
      </trkpt>
      <trkpt lat="46.91851" lon="5.81238">
        <ele>571</ele>
        <time>2012-04-08T09:16:52Z</time>
      </trkpt>
      <trkpt lat="46.91851" lon="5.81233">
        <ele>571</ele>
        <time>2012-04-08T09:16:53Z</time>
      </trkpt>
      <trkpt lat="46.9185" lon="5.81209">
        <ele>571</ele>
        <time>2012-04-08T09:16:59Z</time>
      </trkpt>
      <trkpt lat="46.91848" lon="5.81202">
        <ele>570</ele>
        <time>2012-04-08T09:17:01Z</time>
      </trkpt>
      <trkpt lat="46.91844" lon="5.81182">
        <ele>570</ele>
        <time>2012-04-08T09:17:06Z</time>
      </trkpt>
      <trkpt lat="46.91843" lon="5.81163">
        <ele>569</ele>
        <time>2012-04-08T09:17:11Z</time>
      </trkpt>
      <trkpt lat="46.91838" lon="5.81143">
        <ele>568</ele>
        <time>2012-04-08T09:17:16Z</time>
      </trkpt>
      <trkpt lat="46.91832" lon="5.81116">
        <ele>568</ele>
        <time>2012-04-08T09:17:22Z</time>
      </trkpt>
      <trkpt lat="46.91827" lon="5.81098">
        <ele>567</ele>
        <time>2012-04-08T09:17:27Z</time>
      </trkpt>
      <trkpt lat="46.91821" lon="5.81083">
        <ele>565</ele>
        <time>2012-04-08T09:17:32Z</time>
      </trkpt>
      <trkpt lat="46.91815" lon="5.81071">
        <ele>565</ele>
        <time>2012-04-08T09:17:36Z</time>
      </trkpt>
      <trkpt lat="46.91807" lon="5.81052">
        <ele>565</ele>
        <time>2012-04-08T09:17:41Z</time>
      </trkpt>
      <trkpt lat="46.91804" lon="5.81033">
        <ele>564</ele>
        <time>2012-04-08T09:17:45Z</time>
      </trkpt>
      <trkpt lat="46.91798" lon="5.81018">
        <ele>564</ele>
        <time>2012-04-08T09:17:49Z</time>
      </trkpt>
      <trkpt lat="46.91794" lon="5.81005">
        <ele>564</ele>
        <time>2012-04-08T09:17:53Z</time>
      </trkpt>
      <trkpt lat="46.91787" lon="5.80978">
        <ele>557</ele>
        <time>2012-04-08T09:17:59Z</time>
      </trkpt>
      <trkpt lat="46.91787" lon="5.80974">
        <ele>556</ele>
        <time>2012-04-08T09:18:00Z</time>
      </trkpt>
      <trkpt lat="46.91775" lon="5.80952">
        <ele>555</ele>
        <time>2012-04-08T09:18:07Z</time>
      </trkpt>
      <trkpt lat="46.91774" lon="5.80948">
        <ele>555</ele>
        <time>2012-04-08T09:18:08Z</time>
      </trkpt>
      <trkpt lat="46.91764" lon="5.80926">
        <ele>553</ele>
        <time>2012-04-08T09:18:14Z</time>
      </trkpt>
      <trkpt lat="46.91755" lon="5.80916">
        <ele>549</ele>
        <time>2012-04-08T09:18:18Z</time>
      </trkpt>
      <trkpt lat="46.91745" lon="5.80906">
        <ele>549</ele>
        <time>2012-04-08T09:18:23Z</time>
      </trkpt>
      <trkpt lat="46.91736" lon="5.80898">
        <ele>547</ele>
        <time>2012-04-08T09:18:28Z</time>
      </trkpt>
      <trkpt lat="46.91727" lon="5.80889">
        <ele>546</ele>
        <time>2012-04-08T09:18:33Z</time>
      </trkpt>
      <trkpt lat="46.91717" lon="5.8088">
        <ele>545</ele>
        <time>2012-04-08T09:18:37Z</time>
      </trkpt>
      <trkpt lat="46.91708" lon="5.80865">
        <ele>544</ele>
        <time>2012-04-08T09:18:42Z</time>
      </trkpt>
      <trkpt lat="46.91707" lon="5.80861">
        <ele>544</ele>
        <time>2012-04-08T09:18:43Z</time>
      </trkpt>
      <trkpt lat="46.91698" lon="5.80843">
        <ele>543</ele>
        <time>2012-04-08T09:18:49Z</time>
      </trkpt>
      <trkpt lat="46.9169" lon="5.80833">
        <ele>534</ele>
        <time>2012-04-08T09:18:53Z</time>
      </trkpt>
      <trkpt lat="46.91689" lon="5.80828">
        <ele>534</ele>
        <time>2012-04-08T09:18:57Z</time>
      </trkpt>
      <trkpt lat="46.91688" lon="5.80827">
        <ele>534</ele>
        <time>2012-04-08T09:19:07Z</time>
      </trkpt>
      <trkpt lat="46.91688" lon="5.80827">
        <ele>534</ele>
        <time>2012-04-08T09:19:09Z</time>
      </trkpt>
      <trkpt lat="46.91697" lon="5.80827">
        <ele>533</ele>
        <time>2012-04-08T09:19:15Z</time>
      </trkpt>
      <trkpt lat="46.91702" lon="5.80828">
        <ele>533</ele>
        <time>2012-04-08T09:19:17Z</time>
      </trkpt>
      <trkpt lat="46.91708" lon="5.80815">
        <ele>531</ele>
        <time>2012-04-08T09:19:22Z</time>
      </trkpt>
      <trkpt lat="46.91711" lon="5.80799">
        <ele>530</ele>
        <time>2012-04-08T09:19:26Z</time>
      </trkpt>
      <trkpt lat="46.91717" lon="5.80773">
        <ele>527</ele>
        <time>2012-04-08T09:19:32Z</time>
      </trkpt>
      <trkpt lat="46.91722" lon="5.80755">
        <ele>526</ele>
        <time>2012-04-08T09:19:37Z</time>
      </trkpt>
      <trkpt lat="46.91728" lon="5.80733">
        <ele>519</ele>
        <time>2012-04-08T09:19:43Z</time>
      </trkpt>
      <trkpt lat="46.91734" lon="5.80715">
        <ele>518</ele>
        <time>2012-04-08T09:19:48Z</time>
      </trkpt>
      <trkpt lat="46.91738" lon="5.80704">
        <ele>517</ele>
        <time>2012-04-08T09:19:52Z</time>
      </trkpt>
      <trkpt lat="46.91742" lon="5.80683">
        <ele>516</ele>
        <time>2012-04-08T09:19:58Z</time>
      </trkpt>
      <trkpt lat="46.91745" lon="5.80662">
        <ele>513</ele>
        <time>2012-04-08T09:20:03Z</time>
      </trkpt>
      <trkpt lat="46.91749" lon="5.80647">
        <ele>513</ele>
        <time>2012-04-08T09:20:07Z</time>
      </trkpt>
      <trkpt lat="46.91754" lon="5.80632">
        <ele>512</ele>
        <time>2012-04-08T09:20:12Z</time>
      </trkpt>
      <trkpt lat="46.91757" lon="5.80615">
        <ele>511</ele>
        <time>2012-04-08T09:20:17Z</time>
      </trkpt>
      <trkpt lat="46.9176" lon="5.80598">
        <ele>511</ele>
        <time>2012-04-08T09:20:22Z</time>
      </trkpt>
      <trkpt lat="46.91765" lon="5.80575">
        <ele>512</ele>
        <time>2012-04-08T09:20:29Z</time>
      </trkpt>
      <trkpt lat="46.91768" lon="5.80562">
        <ele>512</ele>
        <time>2012-04-08T09:20:33Z</time>
      </trkpt>
      <trkpt lat="46.91772" lon="5.80548">
        <ele>513</ele>
        <time>2012-04-08T09:20:38Z</time>
      </trkpt>
      <trkpt lat="46.91774" lon="5.80543">
        <ele>513</ele>
        <time>2012-04-08T09:20:40Z</time>
      </trkpt>
      <trkpt lat="46.91777" lon="5.80522">
        <ele>513</ele>
        <time>2012-04-08T09:20:47Z</time>
      </trkpt>
      <trkpt lat="46.91782" lon="5.80507">
        <ele>513</ele>
        <time>2012-04-08T09:20:53Z</time>
      </trkpt>
      <trkpt lat="46.91786" lon="5.80494">
        <ele>517</ele>
        <time>2012-04-08T09:20:58Z</time>
      </trkpt>
      <trkpt lat="46.9179" lon="5.8048">
        <ele>518</ele>
        <time>2012-04-08T09:21:04Z</time>
      </trkpt>
      <trkpt lat="46.91793" lon="5.80463">
        <ele>519</ele>
        <time>2012-04-08T09:21:10Z</time>
      </trkpt>
      <trkpt lat="46.91795" lon="5.80449">
        <ele>519</ele>
        <time>2012-04-08T09:21:15Z</time>
      </trkpt>
      <trkpt lat="46.918" lon="5.80437">
        <ele>520</ele>
        <time>2012-04-08T09:21:21Z</time>
      </trkpt>
      <trkpt lat="46.91802" lon="5.80426">
        <ele>521</ele>
        <time>2012-04-08T09:21:25Z</time>
      </trkpt>
      <trkpt lat="46.91801" lon="5.80408">
        <ele>529</ele>
        <time>2012-04-08T09:21:31Z</time>
      </trkpt>
      <trkpt lat="46.91799" lon="5.80402">
        <ele>529</ele>
        <time>2012-04-08T09:21:37Z</time>
      </trkpt>
      <trkpt lat="46.91798" lon="5.80402">
        <ele>530</ele>
        <time>2012-04-08T09:21:38Z</time>
      </trkpt>
      <trkpt lat="46.91799" lon="5.80399">
        <ele>530</ele>
        <time>2012-04-08T09:21:43Z</time>
      </trkpt>
      <trkpt lat="46.91798" lon="5.80399">
        <ele>530</ele>
        <time>2012-04-08T09:21:44Z</time>
      </trkpt>
      <trkpt lat="46.91796" lon="5.80396">
        <ele>530</ele>
        <time>2012-04-08T09:21:47Z</time>
      </trkpt>
      <trkpt lat="46.91797" lon="5.80395">
        <ele>530</ele>
        <time>2012-04-08T09:21:53Z</time>
      </trkpt>
      <trkpt lat="46.91797" lon="5.80395">
        <ele>530</ele>
        <time>2012-04-08T09:21:57Z</time>
      </trkpt>
      <trkpt lat="46.91803" lon="5.80392">
        <ele>530</ele>
        <time>2012-04-08T09:22:02Z</time>
      </trkpt>
      <trkpt lat="46.91805" lon="5.80392">
        <ele>530</ele>
        <time>2012-04-08T09:22:03Z</time>
      </trkpt>
      <trkpt lat="46.91819" lon="5.80384">
        <ele>531</ele>
        <time>2012-04-08T09:22:10Z</time>
      </trkpt>
      <trkpt lat="46.9183" lon="5.80382">
        <ele>531</ele>
        <time>2012-04-08T09:22:15Z</time>
      </trkpt>
      <trkpt lat="46.91843" lon="5.80379">
        <ele>529</ele>
        <time>2012-04-08T09:22:20Z</time>
      </trkpt>
      <trkpt lat="46.91853" lon="5.80376">
        <ele>529</ele>
        <time>2012-04-08T09:22:25Z</time>
      </trkpt>
      <trkpt lat="46.91867" lon="5.80372">
        <ele>529</ele>
        <time>2012-04-08T09:22:30Z</time>
      </trkpt>
      <trkpt lat="46.91878" lon="5.80361">
        <ele>530</ele>
        <time>2012-04-08T09:22:36Z</time>
      </trkpt>
      <trkpt lat="46.91889" lon="5.80349">
        <ele>530</ele>
        <time>2012-04-08T09:22:41Z</time>
      </trkpt>
      <trkpt lat="46.91899" lon="5.80341">
        <ele>531</ele>
        <time>2012-04-08T09:22:45Z</time>
      </trkpt>
      <trkpt lat="46.91909" lon="5.80333">
        <ele>535</ele>
        <time>2012-04-08T09:22:49Z</time>
      </trkpt>
      <trkpt lat="46.91919" lon="5.80323">
        <ele>535</ele>
        <time>2012-04-08T09:22:54Z</time>
      </trkpt>
      <trkpt lat="46.91929" lon="5.80311">
        <ele>537</ele>
        <time>2012-04-08T09:22:59Z</time>
      </trkpt>
      <trkpt lat="46.91937" lon="5.80297">
        <ele>539</ele>
        <time>2012-04-08T09:23:04Z</time>
      </trkpt>
      <trkpt lat="46.91939" lon="5.80292">
        <ele>539</ele>
        <time>2012-04-08T09:23:06Z</time>
      </trkpt>
      <trkpt lat="46.91945" lon="5.8028">
        <ele>540</ele>
        <time>2012-04-08T09:23:11Z</time>
      </trkpt>
      <trkpt lat="46.91946" lon="5.80285">
        <ele>540</ele>
        <time>2012-04-08T09:23:17Z</time>
      </trkpt>
      <trkpt lat="46.91948" lon="5.80281">
        <ele>540</ele>
        <time>2012-04-08T09:23:19Z</time>
      </trkpt>
      <trkpt lat="46.91951" lon="5.80266">
        <ele>541</ele>
        <time>2012-04-08T09:23:24Z</time>
      </trkpt>
      <trkpt lat="46.91954" lon="5.80253">
        <ele>541</ele>
        <time>2012-04-08T09:23:28Z</time>
      </trkpt>
      <trkpt lat="46.91954" lon="5.80233">
        <ele>546</ele>
        <time>2012-04-08T09:23:33Z</time>
      </trkpt>
      <trkpt lat="46.91951" lon="5.80219">
        <ele>546</ele>
        <time>2012-04-08T09:23:37Z</time>
      </trkpt>
      <trkpt lat="46.91948" lon="5.80212">
        <ele>546</ele>
        <time>2012-04-08T09:23:39Z</time>
      </trkpt>
      <trkpt lat="46.91945" lon="5.80193">
        <ele>547</ele>
        <time>2012-04-08T09:23:44Z</time>
      </trkpt>
      <trkpt lat="46.91942" lon="5.80173">
        <ele>547</ele>
        <time>2012-04-08T09:23:49Z</time>
      </trkpt>
      <trkpt lat="46.91935" lon="5.80155">
        <ele>548</ele>
        <time>2012-04-08T09:23:54Z</time>
      </trkpt>
      <trkpt lat="46.91929" lon="5.80134">
        <ele>548</ele>
        <time>2012-04-08T09:23:59Z</time>
      </trkpt>
      <trkpt lat="46.91927" lon="5.80127">
        <ele>548</ele>
        <time>2012-04-08T09:24:01Z</time>
      </trkpt>
      <trkpt lat="46.91924" lon="5.80105">
        <ele>548</ele>
        <time>2012-04-08T09:24:07Z</time>
      </trkpt>
      <trkpt lat="46.91915" lon="5.80086">
        <ele>546</ele>
        <time>2012-04-08T09:24:12Z</time>
      </trkpt>
      <trkpt lat="46.91908" lon="5.80068">
        <ele>545</ele>
        <time>2012-04-08T09:24:17Z</time>
      </trkpt>
      <trkpt lat="46.919" lon="5.80048">
        <ele>545</ele>
        <time>2012-04-08T09:24:22Z</time>
      </trkpt>
      <trkpt lat="46.91896" lon="5.80024">
        <ele>544</ele>
        <time>2012-04-08T09:24:27Z</time>
      </trkpt>
      <trkpt lat="46.91893" lon="5.80003">
        <ele>543</ele>
        <time>2012-04-08T09:24:32Z</time>
      </trkpt>
      <trkpt lat="46.91895" lon="5.79994">
        <ele>539</ele>
        <time>2012-04-08T09:24:39Z</time>
      </trkpt>
      <trkpt lat="46.91893" lon="5.79994">
        <ele>539</ele>
        <time>2012-04-08T09:24:41Z</time>
      </trkpt>
      <trkpt lat="46.91891" lon="5.79987">
        <ele>538</ele>
        <time>2012-04-08T09:24:46Z</time>
      </trkpt>
      <trkpt lat="46.91889" lon="5.7998">
        <ele>538</ele>
        <time>2012-04-08T09:24:48Z</time>
      </trkpt>
      <trkpt lat="46.91884" lon="5.79953">
        <ele>536</ele>
        <time>2012-04-08T09:24:54Z</time>
      </trkpt>
      <trkpt lat="46.91882" lon="5.79934">
        <ele>535</ele>
        <time>2012-04-08T09:24:58Z</time>
      </trkpt>
      <trkpt lat="46.91882" lon="5.7991">
        <ele>527</ele>
        <time>2012-04-08T09:25:03Z</time>
      </trkpt>
      <trkpt lat="46.91881" lon="5.79882">
        <ele>525</ele>
        <time>2012-04-08T09:25:08Z</time>
      </trkpt>
      <trkpt lat="46.91882" lon="5.79855">
        <ele>523</ele>
        <time>2012-04-08T09:25:13Z</time>
      </trkpt>
      <trkpt lat="46.91885" lon="5.79841">
        <ele>522</ele>
        <time>2012-04-08T09:25:16Z</time>
      </trkpt>
      <trkpt lat="46.91895" lon="5.79821">
        <ele>514</ele>
        <time>2012-04-08T09:25:21Z</time>
      </trkpt>
      <trkpt lat="46.91897" lon="5.79813">
        <ele>513</ele>
        <time>2012-04-08T09:25:23Z</time>
      </trkpt>
      <trkpt lat="46.91909" lon="5.79786">
        <ele>510</ele>
        <time>2012-04-08T09:25:29Z</time>
      </trkpt>
      <trkpt lat="46.91918" lon="5.79762">
        <ele>511</ele>
        <time>2012-04-08T09:25:34Z</time>
      </trkpt>
      <trkpt lat="46.91925" lon="5.79745">
        <ele>507</ele>
        <time>2012-04-08T09:25:38Z</time>
      </trkpt>
      <trkpt lat="46.91927" lon="5.79741">
        <ele>507</ele>
        <time>2012-04-08T09:25:40Z</time>
      </trkpt>
      <trkpt lat="46.91935" lon="5.79724">
        <ele>508</ele>
        <time>2012-04-08T09:25:46Z</time>
      </trkpt>
      <trkpt lat="46.91942" lon="5.79708">
        <ele>507</ele>
        <time>2012-04-08T09:25:51Z</time>
      </trkpt>
      <trkpt lat="46.91947" lon="5.79697">
        <ele>507</ele>
        <time>2012-04-08T09:25:54Z</time>
      </trkpt>
      <trkpt lat="46.91955" lon="5.79675">
        <ele>507</ele>
        <time>2012-04-08T09:26:00Z</time>
      </trkpt>
      <trkpt lat="46.9196" lon="5.79658">
        <ele>504</ele>
        <time>2012-04-08T09:26:04Z</time>
      </trkpt>
      <trkpt lat="46.91973" lon="5.79633">
        <ele>504</ele>
        <time>2012-04-08T09:26:11Z</time>
      </trkpt>
      <trkpt lat="46.91985" lon="5.79621">
        <ele>503</ele>
        <time>2012-04-08T09:26:15Z</time>
      </trkpt>
      <trkpt lat="46.91999" lon="5.79602">
        <ele>503</ele>
        <time>2012-04-08T09:26:21Z</time>
      </trkpt>
      <trkpt lat="46.92005" lon="5.79583">
        <ele>501</ele>
        <time>2012-04-08T09:26:26Z</time>
      </trkpt>
      <trkpt lat="46.9201" lon="5.79566">
        <ele>499</ele>
        <time>2012-04-08T09:26:30Z</time>
      </trkpt>
      <trkpt lat="46.92014" lon="5.79551">
        <ele>498</ele>
        <time>2012-04-08T09:26:34Z</time>
      </trkpt>
      <trkpt lat="46.92019" lon="5.79536">
        <ele>497</ele>
        <time>2012-04-08T09:26:38Z</time>
      </trkpt>
      <trkpt lat="46.92026" lon="5.79519">
        <ele>497</ele>
        <time>2012-04-08T09:26:43Z</time>
      </trkpt>
      <trkpt lat="46.92034" lon="5.795">
        <ele>496</ele>
        <time>2012-04-08T09:26:48Z</time>
      </trkpt>
      <trkpt lat="46.92036" lon="5.79497">
        <ele>495</ele>
        <time>2012-04-08T09:26:49Z</time>
      </trkpt>
      <trkpt lat="46.92042" lon="5.79483">
        <ele>494</ele>
        <time>2012-04-08T09:26:53Z</time>
      </trkpt>
      <trkpt lat="46.92051" lon="5.79458">
        <ele>494</ele>
        <time>2012-04-08T09:26:59Z</time>
      </trkpt>
      <trkpt lat="46.92057" lon="5.79443">
        <ele>493</ele>
        <time>2012-04-08T09:27:03Z</time>
      </trkpt>
      <trkpt lat="46.92061" lon="5.79429">
        <ele>493</ele>
        <time>2012-04-08T09:27:07Z</time>
      </trkpt>
      <trkpt lat="46.92065" lon="5.79412">
        <ele>494</ele>
        <time>2012-04-08T09:27:11Z</time>
      </trkpt>
      <trkpt lat="46.92072" lon="5.79387">
        <ele>495</ele>
        <time>2012-04-08T09:27:17Z</time>
      </trkpt>
      <trkpt lat="46.92081" lon="5.79371">
        <ele>496</ele>
        <time>2012-04-08T09:27:22Z</time>
      </trkpt>
      <trkpt lat="46.92087" lon="5.79353">
        <ele>490</ele>
        <time>2012-04-08T09:27:27Z</time>
      </trkpt>
      <trkpt lat="46.92093" lon="5.79336">
        <ele>492</ele>
        <time>2012-04-08T09:27:32Z</time>
      </trkpt>
      <trkpt lat="46.92103" lon="5.79323">
        <ele>491</ele>
        <time>2012-04-08T09:27:37Z</time>
      </trkpt>
      <trkpt lat="46.92114" lon="5.79309">
        <ele>489</ele>
        <time>2012-04-08T09:27:43Z</time>
      </trkpt>
      <trkpt lat="46.92129" lon="5.79299">
        <ele>488</ele>
        <time>2012-04-08T09:27:48Z</time>
      </trkpt>
      <trkpt lat="46.9214" lon="5.79284">
        <ele>487</ele>
        <time>2012-04-08T09:27:54Z</time>
      </trkpt>
      <trkpt lat="46.92149" lon="5.79276">
        <ele>486</ele>
        <time>2012-04-08T09:27:58Z</time>
      </trkpt>
      <trkpt lat="46.92153" lon="5.79272">
        <ele>486</ele>
        <time>2012-04-08T09:28:00Z</time>
      </trkpt>
      <trkpt lat="46.92161" lon="5.79264">
        <ele>485</ele>
        <time>2012-04-08T09:28:05Z</time>
      </trkpt>
      <trkpt lat="46.92172" lon="5.79254">
        <ele>481</ele>
        <time>2012-04-08T09:28:10Z</time>
      </trkpt>
      <trkpt lat="46.92182" lon="5.79243">
        <ele>480</ele>
        <time>2012-04-08T09:28:15Z</time>
      </trkpt>
      <trkpt lat="46.92197" lon="5.79231">
        <ele>478</ele>
        <time>2012-04-08T09:28:22Z</time>
      </trkpt>
      <trkpt lat="46.92207" lon="5.79219">
        <ele>478</ele>
        <time>2012-04-08T09:28:28Z</time>
      </trkpt>
      <trkpt lat="46.92209" lon="5.79217">
        <ele>477</ele>
        <time>2012-04-08T09:28:29Z</time>
      </trkpt>
      <trkpt lat="46.92216" lon="5.79207">
        <ele>477</ele>
        <time>2012-04-08T09:28:35Z</time>
      </trkpt>
      <trkpt lat="46.92227" lon="5.79208">
        <ele>477</ele>
        <time>2012-04-08T09:28:40Z</time>
      </trkpt>
      <trkpt lat="46.92236" lon="5.79213">
        <ele>476</ele>
        <time>2012-04-08T09:28:44Z</time>
      </trkpt>
      <trkpt lat="46.92242" lon="5.79215">
        <ele>476</ele>
        <time>2012-04-08T09:28:46Z</time>
      </trkpt>
      <trkpt lat="46.92258" lon="5.79211">
        <ele>469</ele>
        <time>2012-04-08T09:28:52Z</time>
      </trkpt>
      <trkpt lat="46.92272" lon="5.79204">
        <ele>469</ele>
        <time>2012-04-08T09:28:56Z</time>
      </trkpt>
      <trkpt lat="46.92286" lon="5.79191">
        <ele>468</ele>
        <time>2012-04-08T09:29:01Z</time>
      </trkpt>
      <trkpt lat="46.92302" lon="5.79183">
        <ele>467</ele>
        <time>2012-04-08T09:29:07Z</time>
      </trkpt>
      <trkpt lat="46.92315" lon="5.79165">
        <ele>464</ele>
        <time>2012-04-08T09:29:12Z</time>
      </trkpt>
      <trkpt lat="46.92323" lon="5.79145">
        <ele>464</ele>
        <time>2012-04-08T09:29:16Z</time>
      </trkpt>
      <trkpt lat="46.92334" lon="5.7912">
        <ele>451</ele>
        <time>2012-04-08T09:29:20Z</time>
      </trkpt>
      <trkpt lat="46.9234" lon="5.79096">
        <ele>450</ele>
        <time>2012-04-08T09:29:24Z</time>
      </trkpt>
      <trkpt lat="46.9234" lon="5.79071">
        <ele>445</ele>
        <time>2012-04-08T09:29:29Z</time>
      </trkpt>
      <trkpt lat="46.92339" lon="5.79067">
        <ele>443</ele>
        <time>2012-04-08T09:29:30Z</time>
      </trkpt>
      <trkpt lat="46.92343" lon="5.79039">
        <ele>437</ele>
        <time>2012-04-08T09:29:36Z</time>
      </trkpt>
      <trkpt lat="46.92335" lon="5.79017">
        <ele>437</ele>
        <time>2012-04-08T09:29:41Z</time>
      </trkpt>
      <trkpt lat="46.92324" lon="5.7901">
        <ele>446</ele>
        <time>2012-04-08T09:29:45Z</time>
      </trkpt>
      <trkpt lat="46.92314" lon="5.78998">
        <ele>440</ele>
        <time>2012-04-08T09:29:49Z</time>
      </trkpt>
      <trkpt lat="46.92306" lon="5.78979">
        <ele>440</ele>
        <time>2012-04-08T09:29:54Z</time>
      </trkpt>
      <trkpt lat="46.92304" lon="5.78957">
        <ele>438</ele>
        <time>2012-04-08T09:29:59Z</time>
      </trkpt>
      <trkpt lat="46.923" lon="5.78937">
        <ele>437</ele>
        <time>2012-04-08T09:30:04Z</time>
      </trkpt>
      <trkpt lat="46.92298" lon="5.78918">
        <ele>436</ele>
        <time>2012-04-08T09:30:08Z</time>
      </trkpt>
      <trkpt lat="46.92299" lon="5.78909">
        <ele>426</ele>
        <time>2012-04-08T09:30:10Z</time>
      </trkpt>
      <trkpt lat="46.92298" lon="5.78888">
        <ele>424</ele>
        <time>2012-04-08T09:30:14Z</time>
      </trkpt>
      <trkpt lat="46.92297" lon="5.78861">
        <ele>422</ele>
        <time>2012-04-08T09:30:19Z</time>
      </trkpt>
      <trkpt lat="46.92296" lon="5.78852">
        <ele>421</ele>
        <time>2012-04-08T09:30:21Z</time>
      </trkpt>
      <trkpt lat="46.92297" lon="5.7883">
        <ele>412</ele>
        <time>2012-04-08T09:30:27Z</time>
      </trkpt>
      <trkpt lat="46.92298" lon="5.78814">
        <ele>412</ele>
        <time>2012-04-08T09:30:31Z</time>
      </trkpt>
      <trkpt lat="46.923" lon="5.78784">
        <ele>409</ele>
        <time>2012-04-08T09:30:37Z</time>
      </trkpt>
      <trkpt lat="46.92297" lon="5.78764">
        <ele>408</ele>
        <time>2012-04-08T09:30:42Z</time>
      </trkpt>
      <trkpt lat="46.92288" lon="5.78746">
        <ele>402</ele>
        <time>2012-04-08T09:30:49Z</time>
      </trkpt>
      <trkpt lat="46.92286" lon="5.78729">
        <ele>402</ele>
        <time>2012-04-08T09:30:53Z</time>
      </trkpt>
      <trkpt lat="46.92288" lon="5.78707">
        <ele>400</ele>
        <time>2012-04-08T09:30:58Z</time>
      </trkpt>
      <trkpt lat="46.92291" lon="5.78678">
        <ele>398</ele>
        <time>2012-04-08T09:31:04Z</time>
      </trkpt>
      <trkpt lat="46.92294" lon="5.78659">
        <ele>390</ele>
        <time>2012-04-08T09:31:08Z</time>
      </trkpt>
      <trkpt lat="46.92294" lon="5.78633">
        <ele>389</ele>
        <time>2012-04-08T09:31:14Z</time>
      </trkpt>
      <trkpt lat="46.92291" lon="5.78607">
        <ele>388</ele>
        <time>2012-04-08T09:31:19Z</time>
      </trkpt>
      <trkpt lat="46.92295" lon="5.78581">
        <ele>380</ele>
        <time>2012-04-08T09:31:24Z</time>
      </trkpt>
      <trkpt lat="46.92297" lon="5.78557">
        <ele>380</ele>
        <time>2012-04-08T09:31:28Z</time>
      </trkpt>
      <trkpt lat="46.92295" lon="5.78529">
        <ele>378</ele>
        <time>2012-04-08T09:31:33Z</time>
      </trkpt>
      <trkpt lat="46.92292" lon="5.78507">
        <ele>378</ele>
        <time>2012-04-08T09:31:38Z</time>
      </trkpt>
      <trkpt lat="46.92286" lon="5.78485">
        <ele>373</ele>
        <time>2012-04-08T09:31:44Z</time>
      </trkpt>
      <trkpt lat="46.92287" lon="5.78461">
        <ele>372</ele>
        <time>2012-04-08T09:31:50Z</time>
      </trkpt>
      <trkpt lat="46.92288" lon="5.78441">
        <ele>371</ele>
        <time>2012-04-08T09:31:55Z</time>
      </trkpt>
      <trkpt lat="46.92287" lon="5.7842">
        <ele>370</ele>
        <time>2012-04-08T09:32:00Z</time>
      </trkpt>
      <trkpt lat="46.92283" lon="5.78399">
        <ele>365</ele>
        <time>2012-04-08T09:32:05Z</time>
      </trkpt>
      <trkpt lat="46.92277" lon="5.78383">
        <ele>364</ele>
        <time>2012-04-08T09:32:10Z</time>
      </trkpt>
      <trkpt lat="46.92268" lon="5.78366">
        <ele>363</ele>
        <time>2012-04-08T09:32:15Z</time>
      </trkpt>
      <trkpt lat="46.92258" lon="5.7835">
        <ele>361</ele>
        <time>2012-04-08T09:32:20Z</time>
      </trkpt>
      <trkpt lat="46.92248" lon="5.78331">
        <ele>358</ele>
        <time>2012-04-08T09:32:26Z</time>
      </trkpt>
      <trkpt lat="46.92239" lon="5.78309">
        <ele>355</ele>
        <time>2012-04-08T09:32:32Z</time>
      </trkpt>
      <trkpt lat="46.92236" lon="5.78288">
        <ele>354</ele>
        <time>2012-04-08T09:32:37Z</time>
      </trkpt>
      <trkpt lat="46.92229" lon="5.78263">
        <ele>352</ele>
        <time>2012-04-08T09:32:43Z</time>
      </trkpt>
      <trkpt lat="46.92218" lon="5.78238">
        <ele>348</ele>
        <time>2012-04-08T09:32:50Z</time>
      </trkpt>
      <trkpt lat="46.92215" lon="5.78237">
        <ele>348</ele>
        <time>2012-04-08T09:32:51Z</time>
      </trkpt>
      <trkpt lat="46.92196" lon="5.78245">
        <ele>347</ele>
        <time>2012-04-08T09:32:57Z</time>
      </trkpt>
      <trkpt lat="46.92186" lon="5.78244">
        <ele>347</ele>
        <time>2012-04-08T09:33:01Z</time>
      </trkpt>
      <trkpt lat="46.92173" lon="5.7822">
        <ele>347</ele>
        <time>2012-04-08T09:33:07Z</time>
      </trkpt>
      <trkpt lat="46.9217" lon="5.78213">
        <ele>346</ele>
        <time>2012-04-08T09:33:09Z</time>
      </trkpt>
      <trkpt lat="46.92155" lon="5.78185">
        <ele>344</ele>
        <time>2012-04-08T09:33:16Z</time>
      </trkpt>
      <trkpt lat="46.92146" lon="5.78168">
        <ele>343</ele>
        <time>2012-04-08T09:33:21Z</time>
      </trkpt>
      <trkpt lat="46.92136" lon="5.78149">
        <ele>339</ele>
        <time>2012-04-08T09:33:26Z</time>
      </trkpt>
      <trkpt lat="46.92127" lon="5.78129">
        <ele>338</ele>
        <time>2012-04-08T09:33:31Z</time>
      </trkpt>
      <trkpt lat="46.92122" lon="5.78111">
        <ele>337</ele>
        <time>2012-04-08T09:33:35Z</time>
      </trkpt>
      <trkpt lat="46.92118" lon="5.78083">
        <ele>333</ele>
        <time>2012-04-08T09:33:41Z</time>
      </trkpt>
      <trkpt lat="46.92118" lon="5.78067">
        <ele>333</ele>
        <time>2012-04-08T09:33:45Z</time>
      </trkpt>
    </trkseg>
  </trk>
</gpx>